<?xml version="1.0" encoding="UTF-8" standalone="no" ?>
<gpx xmlns="http://www.topografix.com/GPX/1/1" xmlns:xsi="http://www.w3.org/2001/XMLSchema-instance" xsi:schemaLocation="http://www.topografix.com/GPX/1/1 http://www.topografix.com/GPX/1/1/gpx.xsd" version="1.1" creator="VisuGPX - https://www.visugpx.com">
  <metadata>
    <name>CAP Bourget du Lac</name>
    <desc><![CDATA[sous une pluie fine.
Y retourner pour mieux explorer le chateau du Bourget du lac]]></desc>
  </metadata>
  <trk>
    <name><![CDATA[2012-04-14 - CAP bourget du lac]]></name>
    <trkseg>
      <trkpt lat="45.66249" lon="5.91969">
        <ele>375.05</ele>
        <time>2012-04-14T13:51:14Z</time>
      </trkpt>
      <trkpt lat="45.66248" lon="5.91959">
        <ele>370.73</ele>
        <time>2012-04-14T13:51:23Z</time>
      </trkpt>
      <trkpt lat="45.66248" lon="5.91958">
        <ele>366.4</ele>
        <time>2012-04-14T13:51:25Z</time>
      </trkpt>
      <trkpt lat="45.66248" lon="5.91957">
        <ele>362.55</ele>
        <time>2012-04-14T13:51:27Z</time>
      </trkpt>
      <trkpt lat="45.66248" lon="5.91956">
        <ele>359.19</ele>
        <time>2012-04-14T13:51:29Z</time>
      </trkpt>
      <trkpt lat="45.66247" lon="5.91955">
        <ele>355.83</ele>
        <time>2012-04-14T13:51:31Z</time>
      </trkpt>
      <trkpt lat="45.66247" lon="5.91955">
        <ele>351.98</ele>
        <time>2012-04-14T13:51:34Z</time>
      </trkpt>
      <trkpt lat="45.66248" lon="5.91954">
        <ele>348.13</ele>
        <time>2012-04-14T13:51:37Z</time>
      </trkpt>
      <trkpt lat="45.66248" lon="5.91953">
        <ele>344.29</ele>
        <time>2012-04-14T13:51:40Z</time>
      </trkpt>
      <trkpt lat="45.66248" lon="5.91953">
        <ele>343.33</ele>
        <time>2012-04-14T13:51:42Z</time>
      </trkpt>
      <trkpt lat="45.66249" lon="5.91955">
        <ele>339.48</ele>
        <time>2012-04-14T13:51:46Z</time>
      </trkpt>
      <trkpt lat="45.66249" lon="5.91956">
        <ele>335.64</ele>
        <time>2012-04-14T13:51:50Z</time>
      </trkpt>
      <trkpt lat="45.66249" lon="5.91956">
        <ele>332.27</ele>
        <time>2012-04-14T13:51:54Z</time>
      </trkpt>
      <trkpt lat="45.66249" lon="5.91957">
        <ele>329.39</ele>
        <time>2012-04-14T13:51:58Z</time>
      </trkpt>
      <trkpt lat="45.66248" lon="5.91957">
        <ele>326.02</ele>
        <time>2012-04-14T13:52:02Z</time>
      </trkpt>
      <trkpt lat="45.66248" lon="5.91956">
        <ele>322.66</ele>
        <time>2012-04-14T13:52:06Z</time>
      </trkpt>
      <trkpt lat="45.66248" lon="5.91955">
        <ele>322.66</ele>
        <time>2012-04-14T13:52:07Z</time>
      </trkpt>
      <trkpt lat="45.66248" lon="5.91955">
        <ele>321.7</ele>
        <time>2012-04-14T13:52:09Z</time>
      </trkpt>
      <trkpt lat="45.66234" lon="5.91953">
        <ele>317.37</ele>
        <time>2012-04-14T13:52:16Z</time>
      </trkpt>
      <trkpt lat="45.66213" lon="5.91964">
        <ele>313.05</ele>
        <time>2012-04-14T13:52:22Z</time>
      </trkpt>
      <trkpt lat="45.66201" lon="5.91971">
        <ele>309.68</ele>
        <time>2012-04-14T13:52:26Z</time>
      </trkpt>
      <trkpt lat="45.66184" lon="5.91975">
        <ele>306.32</ele>
        <time>2012-04-14T13:52:31Z</time>
      </trkpt>
      <trkpt lat="45.66166" lon="5.91976">
        <ele>302.47</ele>
        <time>2012-04-14T13:52:36Z</time>
      </trkpt>
      <trkpt lat="45.66149" lon="5.91979">
        <ele>299.59</ele>
        <time>2012-04-14T13:52:41Z</time>
      </trkpt>
      <trkpt lat="45.66132" lon="5.91981">
        <ele>296.22</ele>
        <time>2012-04-14T13:52:47Z</time>
      </trkpt>
      <trkpt lat="45.6611" lon="5.91988">
        <ele>293.34</ele>
        <time>2012-04-14T13:52:54Z</time>
      </trkpt>
      <trkpt lat="45.66101" lon="5.91989">
        <ele>291.42</ele>
        <time>2012-04-14T13:52:57Z</time>
      </trkpt>
      <trkpt lat="45.6609" lon="5.91972">
        <ele>289.49</ele>
        <time>2012-04-14T13:53:03Z</time>
      </trkpt>
      <trkpt lat="45.66091" lon="5.91967">
        <ele>289.01</ele>
        <time>2012-04-14T13:53:04Z</time>
      </trkpt>
      <trkpt lat="45.66104" lon="5.91909">
        <ele>285.65</ele>
        <time>2012-04-14T13:53:17Z</time>
      </trkpt>
      <trkpt lat="45.66111" lon="5.91879">
        <ele>283.25</ele>
        <time>2012-04-14T13:53:24Z</time>
      </trkpt>
      <trkpt lat="45.66117" lon="5.91839">
        <ele>283.25</ele>
        <time>2012-04-14T13:53:33Z</time>
      </trkpt>
      <trkpt lat="45.66125" lon="5.91797">
        <ele>282.28</ele>
        <time>2012-04-14T13:53:45Z</time>
      </trkpt>
      <trkpt lat="45.66126" lon="5.91747">
        <ele>281.32</ele>
        <time>2012-04-14T13:53:55Z</time>
      </trkpt>
      <trkpt lat="45.66123" lon="5.9168">
        <ele>280.84</ele>
        <time>2012-04-14T13:54:09Z</time>
      </trkpt>
      <trkpt lat="45.66124" lon="5.91633">
        <ele>280.36</ele>
        <time>2012-04-14T13:54:20Z</time>
      </trkpt>
      <trkpt lat="45.66124" lon="5.91621">
        <ele>280.36</ele>
        <time>2012-04-14T13:54:23Z</time>
      </trkpt>
      <trkpt lat="45.66116" lon="5.91583">
        <ele>278.92</ele>
        <time>2012-04-14T13:54:32Z</time>
      </trkpt>
      <trkpt lat="45.66115" lon="5.91539">
        <ele>278.44</ele>
        <time>2012-04-14T13:54:42Z</time>
      </trkpt>
      <trkpt lat="45.66116" lon="5.91516">
        <ele>277.96</ele>
        <time>2012-04-14T13:54:47Z</time>
      </trkpt>
      <trkpt lat="45.66107" lon="5.91505">
        <ele>277.96</ele>
        <time>2012-04-14T13:54:51Z</time>
      </trkpt>
      <trkpt lat="45.66069" lon="5.91518">
        <ele>277.48</ele>
        <time>2012-04-14T13:55:04Z</time>
      </trkpt>
      <trkpt lat="45.66044" lon="5.91519">
        <ele>277</ele>
        <time>2012-04-14T13:55:12Z</time>
      </trkpt>
      <trkpt lat="45.66029" lon="5.91469">
        <ele>275.07</ele>
        <time>2012-04-14T13:55:24Z</time>
      </trkpt>
      <trkpt lat="45.66018" lon="5.91418">
        <ele>274.59</ele>
        <time>2012-04-14T13:55:36Z</time>
      </trkpt>
      <trkpt lat="45.66012" lon="5.91368">
        <ele>274.11</ele>
        <time>2012-04-14T13:55:48Z</time>
      </trkpt>
      <trkpt lat="45.6601" lon="5.91321">
        <ele>273.63</ele>
        <time>2012-04-14T13:55:59Z</time>
      </trkpt>
      <trkpt lat="45.66005" lon="5.91262">
        <ele>273.15</ele>
        <time>2012-04-14T13:56:11Z</time>
      </trkpt>
      <trkpt lat="45.65997" lon="5.91217">
        <ele>272.67</ele>
        <time>2012-04-14T13:56:21Z</time>
      </trkpt>
      <trkpt lat="45.65999" lon="5.91179">
        <ele>274.11</ele>
        <time>2012-04-14T13:56:30Z</time>
      </trkpt>
      <trkpt lat="45.6601" lon="5.91146">
        <ele>275.56</ele>
        <time>2012-04-14T13:56:40Z</time>
      </trkpt>
      <trkpt lat="45.66024" lon="5.9112">
        <ele>276.04</ele>
        <time>2012-04-14T13:56:48Z</time>
      </trkpt>
      <trkpt lat="45.66043" lon="5.91106">
        <ele>276.04</ele>
        <time>2012-04-14T13:56:56Z</time>
      </trkpt>
      <trkpt lat="45.66078" lon="5.91087">
        <ele>276.04</ele>
        <time>2012-04-14T13:57:08Z</time>
      </trkpt>
      <trkpt lat="45.66094" lon="5.91049">
        <ele>276.04</ele>
        <time>2012-04-14T13:57:18Z</time>
      </trkpt>
      <trkpt lat="45.66101" lon="5.90996">
        <ele>273.63</ele>
        <time>2012-04-14T13:57:30Z</time>
      </trkpt>
      <trkpt lat="45.66105" lon="5.90939">
        <ele>271.23</ele>
        <time>2012-04-14T13:57:42Z</time>
      </trkpt>
      <trkpt lat="45.66107" lon="5.9093">
        <ele>270.27</ele>
        <time>2012-04-14T13:57:45Z</time>
      </trkpt>
      <trkpt lat="45.66095" lon="5.90889">
        <ele>269.31</ele>
        <time>2012-04-14T13:57:56Z</time>
      </trkpt>
      <trkpt lat="45.66094" lon="5.90857">
        <ele>269.31</ele>
        <time>2012-04-14T13:58:05Z</time>
      </trkpt>
      <trkpt lat="45.66097" lon="5.90795">
        <ele>272.67</ele>
        <time>2012-04-14T13:58:22Z</time>
      </trkpt>
      <trkpt lat="45.661" lon="5.90751">
        <ele>275.07</ele>
        <time>2012-04-14T13:58:34Z</time>
      </trkpt>
      <trkpt lat="45.66101" lon="5.90736">
        <ele>278.92</ele>
        <time>2012-04-14T13:58:38Z</time>
      </trkpt>
      <trkpt lat="45.66106" lon="5.90682">
        <ele>281.32</ele>
        <time>2012-04-14T13:58:52Z</time>
      </trkpt>
      <trkpt lat="45.66108" lon="5.90641">
        <ele>282.28</ele>
        <time>2012-04-14T13:59:03Z</time>
      </trkpt>
      <trkpt lat="45.66111" lon="5.90591">
        <ele>283.25</ele>
        <time>2012-04-14T13:59:16Z</time>
      </trkpt>
      <trkpt lat="45.66113" lon="5.90544">
        <ele>283.73</ele>
        <time>2012-04-14T13:59:30Z</time>
      </trkpt>
      <trkpt lat="45.66116" lon="5.90491">
        <ele>283.73</ele>
        <time>2012-04-14T13:59:43Z</time>
      </trkpt>
      <trkpt lat="45.66121" lon="5.90439">
        <ele>282.28</ele>
        <time>2012-04-14T13:59:54Z</time>
      </trkpt>
      <trkpt lat="45.66118" lon="5.90383">
        <ele>281.8</ele>
        <time>2012-04-14T14:00:06Z</time>
      </trkpt>
      <trkpt lat="45.66113" lon="5.90363">
        <ele>281.32</ele>
        <time>2012-04-14T14:00:11Z</time>
      </trkpt>
      <trkpt lat="45.66105" lon="5.90352">
        <ele>280.36</ele>
        <time>2012-04-14T14:00:15Z</time>
      </trkpt>
      <trkpt lat="45.66076" lon="5.90323">
        <ele>279.88</ele>
        <time>2012-04-14T14:00:27Z</time>
      </trkpt>
      <trkpt lat="45.66047" lon="5.90296">
        <ele>279.88</ele>
        <time>2012-04-14T14:00:39Z</time>
      </trkpt>
      <trkpt lat="45.66016" lon="5.90266">
        <ele>279.88</ele>
        <time>2012-04-14T14:00:52Z</time>
      </trkpt>
      <trkpt lat="45.65986" lon="5.90235">
        <ele>279.4</ele>
        <time>2012-04-14T14:01:05Z</time>
      </trkpt>
      <trkpt lat="45.65959" lon="5.90206">
        <ele>278.92</ele>
        <time>2012-04-14T14:01:16Z</time>
      </trkpt>
      <trkpt lat="45.65924" lon="5.90171">
        <ele>278.44</ele>
        <time>2012-04-14T14:01:29Z</time>
      </trkpt>
      <trkpt lat="45.65892" lon="5.90141">
        <ele>277.96</ele>
        <time>2012-04-14T14:01:42Z</time>
      </trkpt>
      <trkpt lat="45.65856" lon="5.90115">
        <ele>277.48</ele>
        <time>2012-04-14T14:01:55Z</time>
      </trkpt>
      <trkpt lat="45.65829" lon="5.90099">
        <ele>277.48</ele>
        <time>2012-04-14T14:02:05Z</time>
      </trkpt>
      <trkpt lat="45.65796" lon="5.90088">
        <ele>277</ele>
        <time>2012-04-14T14:02:16Z</time>
      </trkpt>
      <trkpt lat="45.65784" lon="5.90092">
        <ele>277</ele>
        <time>2012-04-14T14:02:21Z</time>
      </trkpt>
      <trkpt lat="45.6576" lon="5.90094">
        <ele>277</ele>
        <time>2012-04-14T14:02:30Z</time>
      </trkpt>
      <trkpt lat="45.65747" lon="5.90093">
        <ele>276.52</ele>
        <time>2012-04-14T14:02:35Z</time>
      </trkpt>
      <trkpt lat="45.65733" lon="5.90097">
        <ele>276.52</ele>
        <time>2012-04-14T14:02:42Z</time>
      </trkpt>
      <trkpt lat="45.65707" lon="5.90104">
        <ele>276.52</ele>
        <time>2012-04-14T14:02:54Z</time>
      </trkpt>
      <trkpt lat="45.6566" lon="5.90106">
        <ele>276.52</ele>
        <time>2012-04-14T14:03:05Z</time>
      </trkpt>
      <trkpt lat="45.65625" lon="5.90103">
        <ele>276.52</ele>
        <time>2012-04-14T14:03:14Z</time>
      </trkpt>
      <trkpt lat="45.65589" lon="5.90104">
        <ele>276.04</ele>
        <time>2012-04-14T14:03:25Z</time>
      </trkpt>
      <trkpt lat="45.65558" lon="5.9014">
        <ele>276.04</ele>
        <time>2012-04-14T14:03:39Z</time>
      </trkpt>
      <trkpt lat="45.65538" lon="5.90157">
        <ele>277.48</ele>
        <time>2012-04-14T14:03:47Z</time>
      </trkpt>
      <trkpt lat="45.65509" lon="5.90179">
        <ele>279.4</ele>
        <time>2012-04-14T14:03:58Z</time>
      </trkpt>
      <trkpt lat="45.6547" lon="5.90189">
        <ele>280.36</ele>
        <time>2012-04-14T14:04:11Z</time>
      </trkpt>
      <trkpt lat="45.65441" lon="5.90194">
        <ele>280.36</ele>
        <time>2012-04-14T14:04:21Z</time>
      </trkpt>
      <trkpt lat="45.65421" lon="5.902">
        <ele>280.36</ele>
        <time>2012-04-14T14:04:28Z</time>
      </trkpt>
      <trkpt lat="45.65401" lon="5.90208">
        <ele>280.36</ele>
        <time>2012-04-14T14:04:35Z</time>
      </trkpt>
      <trkpt lat="45.65362" lon="5.90222">
        <ele>278.92</ele>
        <time>2012-04-14T14:04:48Z</time>
      </trkpt>
      <trkpt lat="45.65357" lon="5.90224">
        <ele>278.92</ele>
        <time>2012-04-14T14:04:50Z</time>
      </trkpt>
      <trkpt lat="45.65346" lon="5.90232">
        <ele>277.96</ele>
        <time>2012-04-14T14:04:54Z</time>
      </trkpt>
      <trkpt lat="45.65316" lon="5.90251">
        <ele>277.48</ele>
        <time>2012-04-14T14:05:05Z</time>
      </trkpt>
      <trkpt lat="45.65282" lon="5.90273">
        <ele>277</ele>
        <time>2012-04-14T14:05:17Z</time>
      </trkpt>
      <trkpt lat="45.65279" lon="5.90276">
        <ele>276.52</ele>
        <time>2012-04-14T14:05:26Z</time>
      </trkpt>
      <trkpt lat="45.65278" lon="5.90275">
        <ele>276.04</ele>
        <time>2012-04-14T14:05:50Z</time>
      </trkpt>
      <trkpt lat="45.65278" lon="5.90275">
        <ele>276.04</ele>
        <time>2012-04-14T14:06:11Z</time>
      </trkpt>
      <trkpt lat="45.65278" lon="5.90275">
        <ele>276.04</ele>
        <time>2012-04-14T14:06:12Z</time>
      </trkpt>
      <trkpt lat="45.65251" lon="5.90297">
        <ele>276.04</ele>
        <time>2012-04-14T14:06:23Z</time>
      </trkpt>
      <trkpt lat="45.65214" lon="5.90338">
        <ele>275.56</ele>
        <time>2012-04-14T14:06:38Z</time>
      </trkpt>
      <trkpt lat="45.6518" lon="5.90369">
        <ele>275.07</ele>
        <time>2012-04-14T14:06:51Z</time>
      </trkpt>
      <trkpt lat="45.65144" lon="5.9039">
        <ele>275.07</ele>
        <time>2012-04-14T14:07:04Z</time>
      </trkpt>
      <trkpt lat="45.65108" lon="5.90414">
        <ele>275.07</ele>
        <time>2012-04-14T14:07:17Z</time>
      </trkpt>
      <trkpt lat="45.65081" lon="5.90434">
        <ele>275.07</ele>
        <time>2012-04-14T14:07:28Z</time>
      </trkpt>
      <trkpt lat="45.65052" lon="5.90457">
        <ele>274.11</ele>
        <time>2012-04-14T14:07:39Z</time>
      </trkpt>
      <trkpt lat="45.65044" lon="5.90463">
        <ele>273.63</ele>
        <time>2012-04-14T14:07:44Z</time>
      </trkpt>
      <trkpt lat="45.65044" lon="5.90444">
        <ele>270.27</ele>
        <time>2012-04-14T14:07:51Z</time>
      </trkpt>
      <trkpt lat="45.65046" lon="5.90431">
        <ele>266.9</ele>
        <time>2012-04-14T14:07:55Z</time>
      </trkpt>
      <trkpt lat="45.65049" lon="5.90423">
        <ele>264.98</ele>
        <time>2012-04-14T14:07:59Z</time>
      </trkpt>
      <trkpt lat="45.65062" lon="5.90385">
        <ele>264.5</ele>
        <time>2012-04-14T14:08:10Z</time>
      </trkpt>
      <trkpt lat="45.65062" lon="5.90379">
        <ele>263.06</ele>
        <time>2012-04-14T14:08:14Z</time>
      </trkpt>
      <trkpt lat="45.6507" lon="5.90351">
        <ele>260.17</ele>
        <time>2012-04-14T14:08:20Z</time>
      </trkpt>
      <trkpt lat="45.65076" lon="5.90342">
        <ele>258.25</ele>
        <time>2012-04-14T14:08:22Z</time>
      </trkpt>
      <trkpt lat="45.65103" lon="5.90297">
        <ele>255.85</ele>
        <time>2012-04-14T14:08:33Z</time>
      </trkpt>
      <trkpt lat="45.65112" lon="5.90244">
        <ele>253.44</ele>
        <time>2012-04-14T14:08:44Z</time>
      </trkpt>
      <trkpt lat="45.65112" lon="5.90208">
        <ele>250.08</ele>
        <time>2012-04-14T14:08:51Z</time>
      </trkpt>
      <trkpt lat="45.65113" lon="5.90192">
        <ele>246.72</ele>
        <time>2012-04-14T14:08:55Z</time>
      </trkpt>
      <trkpt lat="45.65114" lon="5.90132">
        <ele>245.75</ele>
        <time>2012-04-14T14:09:06Z</time>
      </trkpt>
      <trkpt lat="45.65123" lon="5.90072">
        <ele>245.75</ele>
        <time>2012-04-14T14:09:19Z</time>
      </trkpt>
      <trkpt lat="45.65127" lon="5.90041">
        <ele>245.75</ele>
        <time>2012-04-14T14:09:29Z</time>
      </trkpt>
      <trkpt lat="45.65128" lon="5.90012">
        <ele>245.75</ele>
        <time>2012-04-14T14:09:36Z</time>
      </trkpt>
      <trkpt lat="45.65121" lon="5.89996">
        <ele>245.75</ele>
        <time>2012-04-14T14:09:42Z</time>
      </trkpt>
      <trkpt lat="45.65095" lon="5.89989">
        <ele>244.31</ele>
        <time>2012-04-14T14:09:53Z</time>
      </trkpt>
      <trkpt lat="45.65073" lon="5.89984">
        <ele>242.39</ele>
        <time>2012-04-14T14:10:01Z</time>
      </trkpt>
      <trkpt lat="45.65067" lon="5.89985">
        <ele>241.91</ele>
        <time>2012-04-14T14:10:04Z</time>
      </trkpt>
      <trkpt lat="45.65055" lon="5.89982">
        <ele>241.43</ele>
        <time>2012-04-14T14:10:08Z</time>
      </trkpt>
      <trkpt lat="45.65049" lon="5.8998">
        <ele>241.43</ele>
        <time>2012-04-14T14:10:10Z</time>
      </trkpt>
      <trkpt lat="45.65031" lon="5.89975">
        <ele>240.95</ele>
        <time>2012-04-14T14:10:16Z</time>
      </trkpt>
      <trkpt lat="45.65011" lon="5.89968">
        <ele>240.47</ele>
        <time>2012-04-14T14:10:23Z</time>
      </trkpt>
      <trkpt lat="45.64974" lon="5.89963">
        <ele>239.02</ele>
        <time>2012-04-14T14:10:36Z</time>
      </trkpt>
      <trkpt lat="45.64936" lon="5.89952">
        <ele>238.54</ele>
        <time>2012-04-14T14:10:48Z</time>
      </trkpt>
      <trkpt lat="45.64907" lon="5.8994">
        <ele>238.54</ele>
        <time>2012-04-14T14:10:59Z</time>
      </trkpt>
      <trkpt lat="45.64881" lon="5.8992">
        <ele>238.54</ele>
        <time>2012-04-14T14:11:10Z</time>
      </trkpt>
      <trkpt lat="45.64841" lon="5.89891">
        <ele>238.06</ele>
        <time>2012-04-14T14:11:23Z</time>
      </trkpt>
      <trkpt lat="45.64808" lon="5.89874">
        <ele>237.1</ele>
        <time>2012-04-14T14:11:35Z</time>
      </trkpt>
      <trkpt lat="45.64766" lon="5.89852">
        <ele>236.62</ele>
        <time>2012-04-14T14:11:49Z</time>
      </trkpt>
      <trkpt lat="45.64729" lon="5.89828">
        <ele>236.62</ele>
        <time>2012-04-14T14:12:03Z</time>
      </trkpt>
      <trkpt lat="45.64702" lon="5.89807">
        <ele>236.62</ele>
        <time>2012-04-14T14:12:15Z</time>
      </trkpt>
      <trkpt lat="45.64658" lon="5.89768">
        <ele>235.66</ele>
        <time>2012-04-14T14:12:30Z</time>
      </trkpt>
      <trkpt lat="45.64654" lon="5.8976">
        <ele>235.66</ele>
        <time>2012-04-14T14:12:32Z</time>
      </trkpt>
      <trkpt lat="45.6466" lon="5.89706">
        <ele>235.66</ele>
        <time>2012-04-14T14:12:44Z</time>
      </trkpt>
      <trkpt lat="45.64679" lon="5.89671">
        <ele>235.66</ele>
        <time>2012-04-14T14:12:54Z</time>
      </trkpt>
      <trkpt lat="45.64705" lon="5.89628">
        <ele>235.18</ele>
        <time>2012-04-14T14:13:07Z</time>
      </trkpt>
      <trkpt lat="45.64726" lon="5.89597">
        <ele>235.18</ele>
        <time>2012-04-14T14:13:19Z</time>
      </trkpt>
      <trkpt lat="45.64753" lon="5.89557">
        <ele>235.18</ele>
        <time>2012-04-14T14:13:31Z</time>
      </trkpt>
      <trkpt lat="45.64774" lon="5.8953">
        <ele>235.18</ele>
        <time>2012-04-14T14:13:41Z</time>
      </trkpt>
      <trkpt lat="45.64794" lon="5.89496">
        <ele>235.18</ele>
        <time>2012-04-14T14:13:52Z</time>
      </trkpt>
      <trkpt lat="45.64802" lon="5.89445">
        <ele>234.7</ele>
        <time>2012-04-14T14:14:05Z</time>
      </trkpt>
      <trkpt lat="45.64804" lon="5.89387">
        <ele>234.7</ele>
        <time>2012-04-14T14:14:18Z</time>
      </trkpt>
      <trkpt lat="45.64807" lon="5.89355">
        <ele>234.7</ele>
        <time>2012-04-14T14:14:26Z</time>
      </trkpt>
      <trkpt lat="45.64809" lon="5.89319">
        <ele>234.7</ele>
        <time>2012-04-14T14:14:35Z</time>
      </trkpt>
      <trkpt lat="45.64798" lon="5.8927">
        <ele>234.22</ele>
        <time>2012-04-14T14:14:46Z</time>
      </trkpt>
      <trkpt lat="45.648" lon="5.89222">
        <ele>234.22</ele>
        <time>2012-04-14T14:14:56Z</time>
      </trkpt>
      <trkpt lat="45.64818" lon="5.89187">
        <ele>234.22</ele>
        <time>2012-04-14T14:15:06Z</time>
      </trkpt>
      <trkpt lat="45.64822" lon="5.8918">
        <ele>234.22</ele>
        <time>2012-04-14T14:15:08Z</time>
      </trkpt>
      <trkpt lat="45.64825" lon="5.89151">
        <ele>234.22</ele>
        <time>2012-04-14T14:15:15Z</time>
      </trkpt>
      <trkpt lat="45.64821" lon="5.89123">
        <ele>234.22</ele>
        <time>2012-04-14T14:15:22Z</time>
      </trkpt>
      <trkpt lat="45.64822" lon="5.89077">
        <ele>234.22</ele>
        <time>2012-04-14T14:15:33Z</time>
      </trkpt>
      <trkpt lat="45.64823" lon="5.89032">
        <ele>234.22</ele>
        <time>2012-04-14T14:15:45Z</time>
      </trkpt>
      <trkpt lat="45.64823" lon="5.88987">
        <ele>234.22</ele>
        <time>2012-04-14T14:15:56Z</time>
      </trkpt>
      <trkpt lat="45.64823" lon="5.88934">
        <ele>233.74</ele>
        <time>2012-04-14T14:16:09Z</time>
      </trkpt>
      <trkpt lat="45.64824" lon="5.88889">
        <ele>233.74</ele>
        <time>2012-04-14T14:16:20Z</time>
      </trkpt>
      <trkpt lat="45.64825" lon="5.88864">
        <ele>233.74</ele>
        <time>2012-04-14T14:16:26Z</time>
      </trkpt>
      <trkpt lat="45.64826" lon="5.88817">
        <ele>233.26</ele>
        <time>2012-04-14T14:16:38Z</time>
      </trkpt>
      <trkpt lat="45.64827" lon="5.88771">
        <ele>233.26</ele>
        <time>2012-04-14T14:16:49Z</time>
      </trkpt>
      <trkpt lat="45.64829" lon="5.88736">
        <ele>233.26</ele>
        <time>2012-04-14T14:16:57Z</time>
      </trkpt>
      <trkpt lat="45.64826" lon="5.88699">
        <ele>232.78</ele>
        <time>2012-04-14T14:17:06Z</time>
      </trkpt>
      <trkpt lat="45.64823" lon="5.8865">
        <ele>232.78</ele>
        <time>2012-04-14T14:17:18Z</time>
      </trkpt>
      <trkpt lat="45.64823" lon="5.88605">
        <ele>232.3</ele>
        <time>2012-04-14T14:17:31Z</time>
      </trkpt>
      <trkpt lat="45.64826" lon="5.88552">
        <ele>232.3</ele>
        <time>2012-04-14T14:17:43Z</time>
      </trkpt>
      <trkpt lat="45.64828" lon="5.88496">
        <ele>231.81</ele>
        <time>2012-04-14T14:17:56Z</time>
      </trkpt>
      <trkpt lat="45.6483" lon="5.88437">
        <ele>231.81</ele>
        <time>2012-04-14T14:18:08Z</time>
      </trkpt>
      <trkpt lat="45.64831" lon="5.88382">
        <ele>231.33</ele>
        <time>2012-04-14T14:18:19Z</time>
      </trkpt>
      <trkpt lat="45.64833" lon="5.88326">
        <ele>230.85</ele>
        <time>2012-04-14T14:18:30Z</time>
      </trkpt>
      <trkpt lat="45.64834" lon="5.88276">
        <ele>230.85</ele>
        <time>2012-04-14T14:18:42Z</time>
      </trkpt>
      <trkpt lat="45.64834" lon="5.88224">
        <ele>230.37</ele>
        <time>2012-04-14T14:18:53Z</time>
      </trkpt>
      <trkpt lat="45.64835" lon="5.88169">
        <ele>230.37</ele>
        <time>2012-04-14T14:19:05Z</time>
      </trkpt>
      <trkpt lat="45.64835" lon="5.88107">
        <ele>229.89</ele>
        <time>2012-04-14T14:19:18Z</time>
      </trkpt>
      <trkpt lat="45.64834" lon="5.88059">
        <ele>229.89</ele>
        <time>2012-04-14T14:19:28Z</time>
      </trkpt>
      <trkpt lat="45.64834" lon="5.87995">
        <ele>229.89</ele>
        <time>2012-04-14T14:19:42Z</time>
      </trkpt>
      <trkpt lat="45.64834" lon="5.87942">
        <ele>229.41</ele>
        <time>2012-04-14T14:19:54Z</time>
      </trkpt>
      <trkpt lat="45.64835" lon="5.87888">
        <ele>229.41</ele>
        <time>2012-04-14T14:20:06Z</time>
      </trkpt>
      <trkpt lat="45.64836" lon="5.8783">
        <ele>229.41</ele>
        <time>2012-04-14T14:20:18Z</time>
      </trkpt>
      <trkpt lat="45.64836" lon="5.87776">
        <ele>228.93</ele>
        <time>2012-04-14T14:20:30Z</time>
      </trkpt>
      <trkpt lat="45.64837" lon="5.87716">
        <ele>228.93</ele>
        <time>2012-04-14T14:20:43Z</time>
      </trkpt>
      <trkpt lat="45.64838" lon="5.87668">
        <ele>228.93</ele>
        <time>2012-04-14T14:20:54Z</time>
      </trkpt>
      <trkpt lat="45.64839" lon="5.87618">
        <ele>228.93</ele>
        <time>2012-04-14T14:21:05Z</time>
      </trkpt>
      <trkpt lat="45.64839" lon="5.87562">
        <ele>228.93</ele>
        <time>2012-04-14T14:21:17Z</time>
      </trkpt>
      <trkpt lat="45.64839" lon="5.87506">
        <ele>228.45</ele>
        <time>2012-04-14T14:21:30Z</time>
      </trkpt>
      <trkpt lat="45.64839" lon="5.8746">
        <ele>228.45</ele>
        <time>2012-04-14T14:21:41Z</time>
      </trkpt>
      <trkpt lat="45.64839" lon="5.8741">
        <ele>228.45</ele>
        <time>2012-04-14T14:21:52Z</time>
      </trkpt>
      <trkpt lat="45.64837" lon="5.87356">
        <ele>228.45</ele>
        <time>2012-04-14T14:22:03Z</time>
      </trkpt>
      <trkpt lat="45.64833" lon="5.87313">
        <ele>228.45</ele>
        <time>2012-04-14T14:22:14Z</time>
      </trkpt>
      <trkpt lat="45.64832" lon="5.87305">
        <ele>228.45</ele>
        <time>2012-04-14T14:22:21Z</time>
      </trkpt>
      <trkpt lat="45.64833" lon="5.87308">
        <ele>228.45</ele>
        <time>2012-04-14T14:22:27Z</time>
      </trkpt>
      <trkpt lat="45.64834" lon="5.87288">
        <ele>228.45</ele>
        <time>2012-04-14T14:22:38Z</time>
      </trkpt>
      <trkpt lat="45.64836" lon="5.87266">
        <ele>227.97</ele>
        <time>2012-04-14T14:22:47Z</time>
      </trkpt>
      <trkpt lat="45.64836" lon="5.8726">
        <ele>227.97</ele>
        <time>2012-04-14T14:22:49Z</time>
      </trkpt>
      <trkpt lat="45.6484" lon="5.87218">
        <ele>227.97</ele>
        <time>2012-04-14T14:23:01Z</time>
      </trkpt>
      <trkpt lat="45.64835" lon="5.87168">
        <ele>227.97</ele>
        <time>2012-04-14T14:23:13Z</time>
      </trkpt>
      <trkpt lat="45.6483" lon="5.87112">
        <ele>227.49</ele>
        <time>2012-04-14T14:23:28Z</time>
      </trkpt>
      <trkpt lat="45.6483" lon="5.87074">
        <ele>227.01</ele>
        <time>2012-04-14T14:23:40Z</time>
      </trkpt>
      <trkpt lat="45.6483" lon="5.87062">
        <ele>227.01</ele>
        <time>2012-04-14T14:23:43Z</time>
      </trkpt>
      <trkpt lat="45.64832" lon="5.87035">
        <ele>227.01</ele>
        <time>2012-04-14T14:23:50Z</time>
      </trkpt>
      <trkpt lat="45.64832" lon="5.87023">
        <ele>227.01</ele>
        <time>2012-04-14T14:23:53Z</time>
      </trkpt>
      <trkpt lat="45.64828" lon="5.86982">
        <ele>226.53</ele>
        <time>2012-04-14T14:24:04Z</time>
      </trkpt>
      <trkpt lat="45.64828" lon="5.86965">
        <ele>226.53</ele>
        <time>2012-04-14T14:24:08Z</time>
      </trkpt>
      <trkpt lat="45.64829" lon="5.86919">
        <ele>226.05</ele>
        <time>2012-04-14T14:24:20Z</time>
      </trkpt>
      <trkpt lat="45.64825" lon="5.86857">
        <ele>225.57</ele>
        <time>2012-04-14T14:24:33Z</time>
      </trkpt>
      <trkpt lat="45.64824" lon="5.86802">
        <ele>225.09</ele>
        <time>2012-04-14T14:24:45Z</time>
      </trkpt>
      <trkpt lat="45.64825" lon="5.86797">
        <ele>225.09</ele>
        <time>2012-04-14T14:24:46Z</time>
      </trkpt>
      <trkpt lat="45.64824" lon="5.8678">
        <ele>225.09</ele>
        <time>2012-04-14T14:24:50Z</time>
      </trkpt>
      <trkpt lat="45.64823" lon="5.86761">
        <ele>225.09</ele>
        <time>2012-04-14T14:24:55Z</time>
      </trkpt>
      <trkpt lat="45.64821" lon="5.86704">
        <ele>224.61</ele>
        <time>2012-04-14T14:25:05Z</time>
      </trkpt>
      <trkpt lat="45.6482" lon="5.8665">
        <ele>224.12</ele>
        <time>2012-04-14T14:25:14Z</time>
      </trkpt>
      <trkpt lat="45.64815" lon="5.86622">
        <ele>224.12</ele>
        <time>2012-04-14T14:25:21Z</time>
      </trkpt>
      <trkpt lat="45.64815" lon="5.86614">
        <ele>224.12</ele>
        <time>2012-04-14T14:25:23Z</time>
      </trkpt>
      <trkpt lat="45.64817" lon="5.86595">
        <ele>224.12</ele>
        <time>2012-04-14T14:25:28Z</time>
      </trkpt>
      <trkpt lat="45.64836" lon="5.86547">
        <ele>223.64</ele>
        <time>2012-04-14T14:25:40Z</time>
      </trkpt>
      <trkpt lat="45.64863" lon="5.8652">
        <ele>223.64</ele>
        <time>2012-04-14T14:25:50Z</time>
      </trkpt>
      <trkpt lat="45.64894" lon="5.86515">
        <ele>223.64</ele>
        <time>2012-04-14T14:26:01Z</time>
      </trkpt>
      <trkpt lat="45.64922" lon="5.86508">
        <ele>223.64</ele>
        <time>2012-04-14T14:26:10Z</time>
      </trkpt>
      <trkpt lat="45.64934" lon="5.86504">
        <ele>223.64</ele>
        <time>2012-04-14T14:26:14Z</time>
      </trkpt>
      <trkpt lat="45.64965" lon="5.86486">
        <ele>223.64</ele>
        <time>2012-04-14T14:26:25Z</time>
      </trkpt>
      <trkpt lat="45.64996" lon="5.86466">
        <ele>223.64</ele>
        <time>2012-04-14T14:26:38Z</time>
      </trkpt>
      <trkpt lat="45.65019" lon="5.86449">
        <ele>223.64</ele>
        <time>2012-04-14T14:26:49Z</time>
      </trkpt>
      <trkpt lat="45.65045" lon="5.8643">
        <ele>223.64</ele>
        <time>2012-04-14T14:27:00Z</time>
      </trkpt>
      <trkpt lat="45.65067" lon="5.86404">
        <ele>223.64</ele>
        <time>2012-04-14T14:27:10Z</time>
      </trkpt>
      <trkpt lat="45.65074" lon="5.86392">
        <ele>223.64</ele>
        <time>2012-04-14T14:27:14Z</time>
      </trkpt>
      <trkpt lat="45.65087" lon="5.86374">
        <ele>223.64</ele>
        <time>2012-04-14T14:27:20Z</time>
      </trkpt>
      <trkpt lat="45.65097" lon="5.86357">
        <ele>223.64</ele>
        <time>2012-04-14T14:27:25Z</time>
      </trkpt>
      <trkpt lat="45.65107" lon="5.86347">
        <ele>223.64</ele>
        <time>2012-04-14T14:27:33Z</time>
      </trkpt>
      <trkpt lat="45.65119" lon="5.86355">
        <ele>223.64</ele>
        <time>2012-04-14T14:27:38Z</time>
      </trkpt>
      <trkpt lat="45.65125" lon="5.86364">
        <ele>223.64</ele>
        <time>2012-04-14T14:27:42Z</time>
      </trkpt>
      <trkpt lat="45.65125" lon="5.86368">
        <ele>223.64</ele>
        <time>2012-04-14T14:27:44Z</time>
      </trkpt>
      <trkpt lat="45.65125" lon="5.86368">
        <ele>223.64</ele>
        <time>2012-04-14T14:27:49Z</time>
      </trkpt>
      <trkpt lat="45.65125" lon="5.86364">
        <ele>223.16</ele>
        <time>2012-04-14T14:28:02Z</time>
      </trkpt>
      <trkpt lat="45.65123" lon="5.86367">
        <ele>223.16</ele>
        <time>2012-04-14T14:28:04Z</time>
      </trkpt>
      <trkpt lat="45.65122" lon="5.86388">
        <ele>223.16</ele>
        <time>2012-04-14T14:28:12Z</time>
      </trkpt>
      <trkpt lat="45.65121" lon="5.86395">
        <ele>223.16</ele>
        <time>2012-04-14T14:28:14Z</time>
      </trkpt>
      <trkpt lat="45.65116" lon="5.86414">
        <ele>222.68</ele>
        <time>2012-04-14T14:28:20Z</time>
      </trkpt>
      <trkpt lat="45.65115" lon="5.86454">
        <ele>222.68</ele>
        <time>2012-04-14T14:28:31Z</time>
      </trkpt>
      <trkpt lat="45.65113" lon="5.86481">
        <ele>222.2</ele>
        <time>2012-04-14T14:28:39Z</time>
      </trkpt>
      <trkpt lat="45.65105" lon="5.86521">
        <ele>220.76</ele>
        <time>2012-04-14T14:29:04Z</time>
      </trkpt>
      <trkpt lat="45.65104" lon="5.86528">
        <ele>221.72</ele>
        <time>2012-04-14T14:29:14Z</time>
      </trkpt>
      <trkpt lat="45.65105" lon="5.8653">
        <ele>223.64</ele>
        <time>2012-04-14T14:29:33Z</time>
      </trkpt>
      <trkpt lat="45.65106" lon="5.86536">
        <ele>222.68</ele>
        <time>2012-04-14T14:29:55Z</time>
      </trkpt>
      <trkpt lat="45.65115" lon="5.86544">
        <ele>222.2</ele>
        <time>2012-04-14T14:30:20Z</time>
      </trkpt>
      <trkpt lat="45.65109" lon="5.86553">
        <ele>221.72</ele>
        <time>2012-04-14T14:30:44Z</time>
      </trkpt>
      <trkpt lat="45.65106" lon="5.86559">
        <ele>221.72</ele>
        <time>2012-04-14T14:31:04Z</time>
      </trkpt>
      <trkpt lat="45.651" lon="5.8657">
        <ele>217.88</ele>
        <time>2012-04-14T14:31:18Z</time>
      </trkpt>
      <trkpt lat="45.65099" lon="5.86571">
        <ele>214.51</ele>
        <time>2012-04-14T14:31:24Z</time>
      </trkpt>
      <trkpt lat="45.65096" lon="5.86574">
        <ele>215.95</ele>
        <time>2012-04-14T14:31:37Z</time>
      </trkpt>
      <trkpt lat="45.65092" lon="5.86568">
        <ele>215.95</ele>
        <time>2012-04-14T14:31:42Z</time>
      </trkpt>
      <trkpt lat="45.6509" lon="5.8656">
        <ele>216.43</ele>
        <time>2012-04-14T14:31:47Z</time>
      </trkpt>
      <trkpt lat="45.65089" lon="5.86536">
        <ele>216.43</ele>
        <time>2012-04-14T14:31:59Z</time>
      </trkpt>
      <trkpt lat="45.65093" lon="5.86501">
        <ele>216.43</ele>
        <time>2012-04-14T14:32:11Z</time>
      </trkpt>
      <trkpt lat="45.65094" lon="5.86498">
        <ele>216.43</ele>
        <time>2012-04-14T14:32:12Z</time>
      </trkpt>
      <trkpt lat="45.65102" lon="5.86455">
        <ele>215.95</ele>
        <time>2012-04-14T14:32:25Z</time>
      </trkpt>
      <trkpt lat="45.65114" lon="5.86418">
        <ele>215.47</ele>
        <time>2012-04-14T14:32:33Z</time>
      </trkpt>
      <trkpt lat="45.65119" lon="5.86395">
        <ele>215.47</ele>
        <time>2012-04-14T14:32:40Z</time>
      </trkpt>
      <trkpt lat="45.65129" lon="5.86369">
        <ele>214.99</ele>
        <time>2012-04-14T14:32:49Z</time>
      </trkpt>
      <trkpt lat="45.65138" lon="5.86343">
        <ele>214.99</ele>
        <time>2012-04-14T14:32:57Z</time>
      </trkpt>
      <trkpt lat="45.6515" lon="5.86316">
        <ele>214.51</ele>
        <time>2012-04-14T14:33:05Z</time>
      </trkpt>
      <trkpt lat="45.65151" lon="5.86297">
        <ele>214.99</ele>
        <time>2012-04-14T14:33:13Z</time>
      </trkpt>
      <trkpt lat="45.65137" lon="5.8629">
        <ele>214.99</ele>
        <time>2012-04-14T14:33:20Z</time>
      </trkpt>
      <trkpt lat="45.65124" lon="5.86289">
        <ele>215.47</ele>
        <time>2012-04-14T14:33:26Z</time>
      </trkpt>
      <trkpt lat="45.65115" lon="5.86289">
        <ele>214.99</ele>
        <time>2012-04-14T14:33:30Z</time>
      </trkpt>
      <trkpt lat="45.65099" lon="5.86288">
        <ele>214.99</ele>
        <time>2012-04-14T14:33:36Z</time>
      </trkpt>
      <trkpt lat="45.65083" lon="5.86294">
        <ele>214.99</ele>
        <time>2012-04-14T14:33:43Z</time>
      </trkpt>
      <trkpt lat="45.65038" lon="5.86277">
        <ele>214.51</ele>
        <time>2012-04-14T14:33:56Z</time>
      </trkpt>
      <trkpt lat="45.65013" lon="5.86272">
        <ele>214.99</ele>
        <time>2012-04-14T14:34:04Z</time>
      </trkpt>
      <trkpt lat="45.65007" lon="5.86256">
        <ele>215.47</ele>
        <time>2012-04-14T14:34:09Z</time>
      </trkpt>
      <trkpt lat="45.65001" lon="5.86226">
        <ele>214.99</ele>
        <time>2012-04-14T14:34:15Z</time>
      </trkpt>
      <trkpt lat="45.64997" lon="5.86171">
        <ele>214.99</ele>
        <time>2012-04-14T14:34:27Z</time>
      </trkpt>
      <trkpt lat="45.6498" lon="5.86128">
        <ele>214.51</ele>
        <time>2012-04-14T14:34:38Z</time>
      </trkpt>
      <trkpt lat="45.64955" lon="5.86081">
        <ele>214.99</ele>
        <time>2012-04-14T14:34:51Z</time>
      </trkpt>
      <trkpt lat="45.64943" lon="5.86052">
        <ele>215.95</ele>
        <time>2012-04-14T14:35:00Z</time>
      </trkpt>
      <trkpt lat="45.64929" lon="5.86041">
        <ele>216.91</ele>
        <time>2012-04-14T14:35:07Z</time>
      </trkpt>
      <trkpt lat="45.64924" lon="5.86039">
        <ele>216.91</ele>
        <time>2012-04-14T14:35:09Z</time>
      </trkpt>
      <trkpt lat="45.64902" lon="5.86024">
        <ele>216.43</ele>
        <time>2012-04-14T14:35:18Z</time>
      </trkpt>
      <trkpt lat="45.64892" lon="5.8603">
        <ele>216.91</ele>
        <time>2012-04-14T14:35:22Z</time>
      </trkpt>
      <trkpt lat="45.64879" lon="5.85999">
        <ele>217.4</ele>
        <time>2012-04-14T14:35:31Z</time>
      </trkpt>
      <trkpt lat="45.64863" lon="5.85944">
        <ele>218.84</ele>
        <time>2012-04-14T14:35:45Z</time>
      </trkpt>
      <trkpt lat="45.6486" lon="5.85931">
        <ele>219.8</ele>
        <time>2012-04-14T14:35:48Z</time>
      </trkpt>
      <trkpt lat="45.64854" lon="5.85913">
        <ele>220.28</ele>
        <time>2012-04-14T14:35:53Z</time>
      </trkpt>
      <trkpt lat="45.64845" lon="5.85858">
        <ele>223.64</ele>
        <time>2012-04-14T14:36:06Z</time>
      </trkpt>
      <trkpt lat="45.6484" lon="5.85813">
        <ele>225.09</ele>
        <time>2012-04-14T14:36:16Z</time>
      </trkpt>
      <trkpt lat="45.6484" lon="5.8577">
        <ele>227.49</ele>
        <time>2012-04-14T14:36:27Z</time>
      </trkpt>
      <trkpt lat="45.64833" lon="5.85734">
        <ele>229.89</ele>
        <time>2012-04-14T14:36:37Z</time>
      </trkpt>
      <trkpt lat="45.64817" lon="5.85695">
        <ele>232.78</ele>
        <time>2012-04-14T14:36:49Z</time>
      </trkpt>
      <trkpt lat="45.64807" lon="5.85664">
        <ele>234.7</ele>
        <time>2012-04-14T14:36:58Z</time>
      </trkpt>
      <trkpt lat="45.64802" lon="5.85651">
        <ele>235.18</ele>
        <time>2012-04-14T14:37:02Z</time>
      </trkpt>
      <trkpt lat="45.64785" lon="5.8561">
        <ele>238.06</ele>
        <time>2012-04-14T14:37:15Z</time>
      </trkpt>
      <trkpt lat="45.64782" lon="5.8559">
        <ele>239.02</ele>
        <time>2012-04-14T14:37:20Z</time>
      </trkpt>
      <trkpt lat="45.64772" lon="5.85569">
        <ele>241.43</ele>
        <time>2012-04-14T14:37:28Z</time>
      </trkpt>
      <trkpt lat="45.64766" lon="5.85562">
        <ele>245.75</ele>
        <time>2012-04-14T14:37:32Z</time>
      </trkpt>
      <trkpt lat="45.64763" lon="5.85556">
        <ele>248.16</ele>
        <time>2012-04-14T14:37:35Z</time>
      </trkpt>
      <trkpt lat="45.64751" lon="5.85525">
        <ele>250.08</ele>
        <time>2012-04-14T14:37:47Z</time>
      </trkpt>
      <trkpt lat="45.64746" lon="5.85489">
        <ele>253.93</ele>
        <time>2012-04-14T14:38:00Z</time>
      </trkpt>
      <trkpt lat="45.64745" lon="5.85481">
        <ele>257.29</ele>
        <time>2012-04-14T14:38:03Z</time>
      </trkpt>
      <trkpt lat="45.64742" lon="5.8547">
        <ele>260.17</ele>
        <time>2012-04-14T14:38:07Z</time>
      </trkpt>
      <trkpt lat="45.64732" lon="5.85446">
        <ele>262.1</ele>
        <time>2012-04-14T14:38:18Z</time>
      </trkpt>
      <trkpt lat="45.64721" lon="5.85425">
        <ele>264.02</ele>
        <time>2012-04-14T14:38:30Z</time>
      </trkpt>
      <trkpt lat="45.64715" lon="5.85415">
        <ele>267.86</ele>
        <time>2012-04-14T14:38:35Z</time>
      </trkpt>
      <trkpt lat="45.64712" lon="5.85406">
        <ele>271.23</ele>
        <time>2012-04-14T14:38:39Z</time>
      </trkpt>
      <trkpt lat="45.6471" lon="5.8539">
        <ele>273.63</ele>
        <time>2012-04-14T14:38:45Z</time>
      </trkpt>
      <trkpt lat="45.64706" lon="5.85364">
        <ele>275.07</ele>
        <time>2012-04-14T14:38:57Z</time>
      </trkpt>
      <trkpt lat="45.64705" lon="5.85358">
        <ele>276.04</ele>
        <time>2012-04-14T14:39:00Z</time>
      </trkpt>
      <trkpt lat="45.64703" lon="5.85345">
        <ele>280.36</ele>
        <time>2012-04-14T14:39:05Z</time>
      </trkpt>
      <trkpt lat="45.64703" lon="5.85337">
        <ele>283.25</ele>
        <time>2012-04-14T14:39:09Z</time>
      </trkpt>
      <trkpt lat="45.647" lon="5.85314">
        <ele>284.69</ele>
        <time>2012-04-14T14:39:18Z</time>
      </trkpt>
      <trkpt lat="45.64687" lon="5.853">
        <ele>286.61</ele>
        <time>2012-04-14T14:39:26Z</time>
      </trkpt>
      <trkpt lat="45.64682" lon="5.85284">
        <ele>290.46</ele>
        <time>2012-04-14T14:39:31Z</time>
      </trkpt>
      <trkpt lat="45.64682" lon="5.8528">
        <ele>290.94</ele>
        <time>2012-04-14T14:39:32Z</time>
      </trkpt>
      <trkpt lat="45.64688" lon="5.85234">
        <ele>292.86</ele>
        <time>2012-04-14T14:39:45Z</time>
      </trkpt>
      <trkpt lat="45.64689" lon="5.85223">
        <ele>293.34</ele>
        <time>2012-04-14T14:39:49Z</time>
      </trkpt>
      <trkpt lat="45.64688" lon="5.85202">
        <ele>296.7</ele>
        <time>2012-04-14T14:39:57Z</time>
      </trkpt>
      <trkpt lat="45.64687" lon="5.85192">
        <ele>300.07</ele>
        <time>2012-04-14T14:40:01Z</time>
      </trkpt>
      <trkpt lat="45.6468" lon="5.85154">
        <ele>302.95</ele>
        <time>2012-04-14T14:40:14Z</time>
      </trkpt>
      <trkpt lat="45.64677" lon="5.85116">
        <ele>305.36</ele>
        <time>2012-04-14T14:40:26Z</time>
      </trkpt>
      <trkpt lat="45.6468" lon="5.85079">
        <ele>307.76</ele>
        <time>2012-04-14T14:40:36Z</time>
      </trkpt>
      <trkpt lat="45.64683" lon="5.85058">
        <ele>311.12</ele>
        <time>2012-04-14T14:40:42Z</time>
      </trkpt>
      <trkpt lat="45.64685" lon="5.85049">
        <ele>313.53</ele>
        <time>2012-04-14T14:40:45Z</time>
      </trkpt>
      <trkpt lat="45.64686" lon="5.85039">
        <ele>315.45</ele>
        <time>2012-04-14T14:40:48Z</time>
      </trkpt>
      <trkpt lat="45.64687" lon="5.85025">
        <ele>315.93</ele>
        <time>2012-04-14T14:40:53Z</time>
      </trkpt>
      <trkpt lat="45.64689" lon="5.85013">
        <ele>315.93</ele>
        <time>2012-04-14T14:40:58Z</time>
      </trkpt>
      <trkpt lat="45.64692" lon="5.84989">
        <ele>317.37</ele>
        <time>2012-04-14T14:41:06Z</time>
      </trkpt>
      <trkpt lat="45.64692" lon="5.84968">
        <ele>321.22</ele>
        <time>2012-04-14T14:41:13Z</time>
      </trkpt>
      <trkpt lat="45.64693" lon="5.84956">
        <ele>324.58</ele>
        <time>2012-04-14T14:41:17Z</time>
      </trkpt>
      <trkpt lat="45.64697" lon="5.84921">
        <ele>327.95</ele>
        <time>2012-04-14T14:41:29Z</time>
      </trkpt>
      <trkpt lat="45.64704" lon="5.84885">
        <ele>331.31</ele>
        <time>2012-04-14T14:41:41Z</time>
      </trkpt>
      <trkpt lat="45.64707" lon="5.84874">
        <ele>335.16</ele>
        <time>2012-04-14T14:41:45Z</time>
      </trkpt>
      <trkpt lat="45.64708" lon="5.84857">
        <ele>338.52</ele>
        <time>2012-04-14T14:41:51Z</time>
      </trkpt>
      <trkpt lat="45.6472" lon="5.84813">
        <ele>339.96</ele>
        <time>2012-04-14T14:42:06Z</time>
      </trkpt>
      <trkpt lat="45.64721" lon="5.84805">
        <ele>340.92</ele>
        <time>2012-04-14T14:42:09Z</time>
      </trkpt>
      <trkpt lat="45.64724" lon="5.84792">
        <ele>345.73</ele>
        <time>2012-04-14T14:42:14Z</time>
      </trkpt>
      <trkpt lat="45.64725" lon="5.84783">
        <ele>348.62</ele>
        <time>2012-04-14T14:42:18Z</time>
      </trkpt>
      <trkpt lat="45.64724" lon="5.84781">
        <ele>348.62</ele>
        <time>2012-04-14T14:42:19Z</time>
      </trkpt>
      <trkpt lat="45.64724" lon="5.84775">
        <ele>349.1</ele>
        <time>2012-04-14T14:42:22Z</time>
      </trkpt>
      <trkpt lat="45.64724" lon="5.84755">
        <ele>351.5</ele>
        <time>2012-04-14T14:42:36Z</time>
      </trkpt>
      <trkpt lat="45.64725" lon="5.84744">
        <ele>355.83</ele>
        <time>2012-04-14T14:42:41Z</time>
      </trkpt>
      <trkpt lat="45.64726" lon="5.84739">
        <ele>359.19</ele>
        <time>2012-04-14T14:42:46Z</time>
      </trkpt>
      <trkpt lat="45.64727" lon="5.84718">
        <ele>360.15</ele>
        <time>2012-04-14T14:43:00Z</time>
      </trkpt>
      <trkpt lat="45.64733" lon="5.84702">
        <ele>364</ele>
        <time>2012-04-14T14:43:08Z</time>
      </trkpt>
      <trkpt lat="45.64734" lon="5.84689">
        <ele>367.84</ele>
        <time>2012-04-14T14:43:12Z</time>
      </trkpt>
      <trkpt lat="45.64735" lon="5.84676">
        <ele>371.21</ele>
        <time>2012-04-14T14:43:18Z</time>
      </trkpt>
      <trkpt lat="45.6474" lon="5.84652">
        <ele>372.17</ele>
        <time>2012-04-14T14:43:30Z</time>
      </trkpt>
      <trkpt lat="45.64745" lon="5.84644">
        <ele>376.49</ele>
        <time>2012-04-14T14:43:38Z</time>
      </trkpt>
      <trkpt lat="45.64758" lon="5.84638">
        <ele>380.34</ele>
        <time>2012-04-14T14:43:44Z</time>
      </trkpt>
      <trkpt lat="45.64769" lon="5.84634">
        <ele>380.34</ele>
        <time>2012-04-14T14:43:52Z</time>
      </trkpt>
      <trkpt lat="45.64784" lon="5.84631">
        <ele>378.9</ele>
        <time>2012-04-14T14:43:59Z</time>
      </trkpt>
      <trkpt lat="45.6479" lon="5.84628">
        <ele>377.94</ele>
        <time>2012-04-14T14:44:11Z</time>
      </trkpt>
      <trkpt lat="45.64785" lon="5.84628">
        <ele>377.94</ele>
        <time>2012-04-14T14:44:19Z</time>
      </trkpt>
      <trkpt lat="45.6478" lon="5.84626">
        <ele>379.38</ele>
        <time>2012-04-14T14:44:25Z</time>
      </trkpt>
      <trkpt lat="45.64774" lon="5.84618">
        <ele>382.74</ele>
        <time>2012-04-14T14:44:30Z</time>
      </trkpt>
      <trkpt lat="45.64772" lon="5.84615">
        <ele>385.15</ele>
        <time>2012-04-14T14:44:32Z</time>
      </trkpt>
      <trkpt lat="45.64766" lon="5.84611">
        <ele>388.99</ele>
        <time>2012-04-14T14:44:37Z</time>
      </trkpt>
      <trkpt lat="45.64749" lon="5.84596">
        <ele>390.91</ele>
        <time>2012-04-14T14:44:52Z</time>
      </trkpt>
      <trkpt lat="45.64742" lon="5.84592">
        <ele>393.8</ele>
        <time>2012-04-14T14:44:57Z</time>
      </trkpt>
      <trkpt lat="45.64739" lon="5.84591">
        <ele>396.2</ele>
        <time>2012-04-14T14:44:59Z</time>
      </trkpt>
      <trkpt lat="45.64732" lon="5.84588">
        <ele>400.05</ele>
        <time>2012-04-14T14:45:04Z</time>
      </trkpt>
      <trkpt lat="45.64716" lon="5.84577">
        <ele>401.49</ele>
        <time>2012-04-14T14:45:16Z</time>
      </trkpt>
      <trkpt lat="45.64713" lon="5.84551">
        <ele>403.89</ele>
        <time>2012-04-14T14:45:27Z</time>
      </trkpt>
      <trkpt lat="45.64713" lon="5.84546">
        <ele>407.74</ele>
        <time>2012-04-14T14:45:31Z</time>
      </trkpt>
      <trkpt lat="45.64712" lon="5.84543">
        <ele>411.1</ele>
        <time>2012-04-14T14:45:34Z</time>
      </trkpt>
      <trkpt lat="45.64708" lon="5.84537">
        <ele>413.98</ele>
        <time>2012-04-14T14:45:39Z</time>
      </trkpt>
      <trkpt lat="45.64706" lon="5.84532">
        <ele>413.98</ele>
        <time>2012-04-14T14:45:44Z</time>
      </trkpt>
      <trkpt lat="45.64691" lon="5.84524">
        <ele>415.43</ele>
        <time>2012-04-14T14:45:57Z</time>
      </trkpt>
      <trkpt lat="45.6468" lon="5.84516">
        <ele>419.27</ele>
        <time>2012-04-14T14:46:05Z</time>
      </trkpt>
      <trkpt lat="45.64676" lon="5.84514">
        <ele>420.23</ele>
        <time>2012-04-14T14:46:07Z</time>
      </trkpt>
      <trkpt lat="45.64666" lon="5.84508">
        <ele>423.12</ele>
        <time>2012-04-14T14:46:14Z</time>
      </trkpt>
      <trkpt lat="45.64646" lon="5.845">
        <ele>424.08</ele>
        <time>2012-04-14T14:46:27Z</time>
      </trkpt>
      <trkpt lat="45.64639" lon="5.84493">
        <ele>427.92</ele>
        <time>2012-04-14T14:46:33Z</time>
      </trkpt>
      <trkpt lat="45.64636" lon="5.84491">
        <ele>429.85</ele>
        <time>2012-04-14T14:46:35Z</time>
      </trkpt>
      <trkpt lat="45.64628" lon="5.84488">
        <ele>433.69</ele>
        <time>2012-04-14T14:46:42Z</time>
      </trkpt>
      <trkpt lat="45.64626" lon="5.84488">
        <ele>433.69</ele>
        <time>2012-04-14T14:46:43Z</time>
      </trkpt>
      <trkpt lat="45.64602" lon="5.8448">
        <ele>434.65</ele>
        <time>2012-04-14T14:46:57Z</time>
      </trkpt>
      <trkpt lat="45.64594" lon="5.84475">
        <ele>438.02</ele>
        <time>2012-04-14T14:47:03Z</time>
      </trkpt>
      <trkpt lat="45.64587" lon="5.84471">
        <ele>441.38</ele>
        <time>2012-04-14T14:47:07Z</time>
      </trkpt>
      <trkpt lat="45.64578" lon="5.84467">
        <ele>444.27</ele>
        <time>2012-04-14T14:47:14Z</time>
      </trkpt>
      <trkpt lat="45.64576" lon="5.84435">
        <ele>443.79</ele>
        <time>2012-04-14T14:47:27Z</time>
      </trkpt>
      <trkpt lat="45.64582" lon="5.84417">
        <ele>444.75</ele>
        <time>2012-04-14T14:47:35Z</time>
      </trkpt>
      <trkpt lat="45.64586" lon="5.84395">
        <ele>447.15</ele>
        <time>2012-04-14T14:47:44Z</time>
      </trkpt>
      <trkpt lat="45.64595" lon="5.84373">
        <ele>450.03</ele>
        <time>2012-04-14T14:47:53Z</time>
      </trkpt>
      <trkpt lat="45.646" lon="5.84369">
        <ele>454.84</ele>
        <time>2012-04-14T14:47:59Z</time>
      </trkpt>
      <trkpt lat="45.64596" lon="5.84375">
        <ele>455.8</ele>
        <time>2012-04-14T14:48:09Z</time>
      </trkpt>
      <trkpt lat="45.64592" lon="5.84374">
        <ele>455.32</ele>
        <time>2012-04-14T14:48:13Z</time>
      </trkpt>
      <trkpt lat="45.64577" lon="5.84366">
        <ele>457.72</ele>
        <time>2012-04-14T14:48:24Z</time>
      </trkpt>
      <trkpt lat="45.64568" lon="5.84359">
        <ele>461.57</ele>
        <time>2012-04-14T14:48:29Z</time>
      </trkpt>
      <trkpt lat="45.64562" lon="5.84356">
        <ele>464.45</ele>
        <time>2012-04-14T14:48:32Z</time>
      </trkpt>
      <trkpt lat="45.64533" lon="5.8435">
        <ele>465.42</ele>
        <time>2012-04-14T14:48:42Z</time>
      </trkpt>
      <trkpt lat="45.64519" lon="5.84349">
        <ele>465.42</ele>
        <time>2012-04-14T14:48:47Z</time>
      </trkpt>
      <trkpt lat="45.64499" lon="5.84342">
        <ele>466.86</ele>
        <time>2012-04-14T14:48:54Z</time>
      </trkpt>
      <trkpt lat="45.6448" lon="5.84326">
        <ele>470.7</ele>
        <time>2012-04-14T14:49:04Z</time>
      </trkpt>
      <trkpt lat="45.64472" lon="5.84321">
        <ele>474.55</ele>
        <time>2012-04-14T14:49:08Z</time>
      </trkpt>
      <trkpt lat="45.64464" lon="5.84317">
        <ele>476.47</ele>
        <time>2012-04-14T14:49:12Z</time>
      </trkpt>
      <trkpt lat="45.64442" lon="5.84308">
        <ele>476.47</ele>
        <time>2012-04-14T14:49:22Z</time>
      </trkpt>
      <trkpt lat="45.64413" lon="5.8429">
        <ele>478.39</ele>
        <time>2012-04-14T14:49:34Z</time>
      </trkpt>
      <trkpt lat="45.64392" lon="5.84272">
        <ele>481.28</ele>
        <time>2012-04-14T14:49:44Z</time>
      </trkpt>
      <trkpt lat="45.64385" lon="5.84264">
        <ele>484.64</ele>
        <time>2012-04-14T14:49:48Z</time>
      </trkpt>
      <trkpt lat="45.64376" lon="5.84247">
        <ele>485.6</ele>
        <time>2012-04-14T14:50:03Z</time>
      </trkpt>
      <trkpt lat="45.64375" lon="5.84246">
        <ele>485.12</ele>
        <time>2012-04-14T14:50:28Z</time>
      </trkpt>
      <trkpt lat="45.64365" lon="5.8424">
        <ele>484.64</ele>
        <time>2012-04-14T14:50:43Z</time>
      </trkpt>
      <trkpt lat="45.64349" lon="5.84229">
        <ele>486.08</ele>
        <time>2012-04-14T14:50:50Z</time>
      </trkpt>
      <trkpt lat="45.64317" lon="5.84211">
        <ele>487.53</ele>
        <time>2012-04-14T14:51:03Z</time>
      </trkpt>
      <trkpt lat="45.64289" lon="5.84197">
        <ele>487.53</ele>
        <time>2012-04-14T14:51:15Z</time>
      </trkpt>
      <trkpt lat="45.64265" lon="5.84196">
        <ele>488.97</ele>
        <time>2012-04-14T14:51:28Z</time>
      </trkpt>
      <trkpt lat="45.6426" lon="5.84194">
        <ele>489.45</ele>
        <time>2012-04-14T14:51:31Z</time>
      </trkpt>
      <trkpt lat="45.64253" lon="5.84191">
        <ele>489.93</ele>
        <time>2012-04-14T14:51:34Z</time>
      </trkpt>
      <trkpt lat="45.64226" lon="5.84185">
        <ele>492.33</ele>
        <time>2012-04-14T14:51:45Z</time>
      </trkpt>
      <trkpt lat="45.64213" lon="5.84184">
        <ele>493.77</ele>
        <time>2012-04-14T14:51:52Z</time>
      </trkpt>
      <trkpt lat="45.64197" lon="5.84185">
        <ele>494.26</ele>
        <time>2012-04-14T14:52:00Z</time>
      </trkpt>
      <trkpt lat="45.64185" lon="5.84194">
        <ele>494.74</ele>
        <time>2012-04-14T14:52:04Z</time>
      </trkpt>
      <trkpt lat="45.64176" lon="5.84203">
        <ele>494.74</ele>
        <time>2012-04-14T14:52:07Z</time>
      </trkpt>
      <trkpt lat="45.64161" lon="5.84208">
        <ele>495.22</ele>
        <time>2012-04-14T14:52:13Z</time>
      </trkpt>
      <trkpt lat="45.64148" lon="5.84211">
        <ele>495.22</ele>
        <time>2012-04-14T14:52:18Z</time>
      </trkpt>
      <trkpt lat="45.64107" lon="5.84223">
        <ele>494.74</ele>
        <time>2012-04-14T14:52:32Z</time>
      </trkpt>
      <trkpt lat="45.64067" lon="5.84243">
        <ele>493.77</ele>
        <time>2012-04-14T14:52:44Z</time>
      </trkpt>
      <trkpt lat="45.64032" lon="5.84234">
        <ele>493.29</ele>
        <time>2012-04-14T14:52:55Z</time>
      </trkpt>
      <trkpt lat="45.63991" lon="5.84219">
        <ele>489.45</ele>
        <time>2012-04-14T14:53:08Z</time>
      </trkpt>
      <trkpt lat="45.63979" lon="5.84221">
        <ele>486.08</ele>
        <time>2012-04-14T14:53:11Z</time>
      </trkpt>
      <trkpt lat="45.63962" lon="5.84219">
        <ele>483.2</ele>
        <time>2012-04-14T14:53:17Z</time>
      </trkpt>
      <trkpt lat="45.63952" lon="5.84214">
        <ele>486.08</ele>
        <time>2012-04-14T14:53:22Z</time>
      </trkpt>
      <trkpt lat="45.63935" lon="5.84208">
        <ele>489.45</ele>
        <time>2012-04-14T14:53:28Z</time>
      </trkpt>
      <trkpt lat="45.63932" lon="5.84208">
        <ele>489.45</ele>
        <time>2012-04-14T14:53:29Z</time>
      </trkpt>
      <trkpt lat="45.63881" lon="5.8422">
        <ele>488.97</ele>
        <time>2012-04-14T14:53:42Z</time>
      </trkpt>
      <trkpt lat="45.63864" lon="5.8422">
        <ele>488.97</ele>
        <time>2012-04-14T14:53:48Z</time>
      </trkpt>
      <trkpt lat="45.63854" lon="5.84219">
        <ele>488.49</ele>
        <time>2012-04-14T14:54:00Z</time>
      </trkpt>
      <trkpt lat="45.63864" lon="5.84236">
        <ele>486.56</ele>
        <time>2012-04-14T14:54:10Z</time>
      </trkpt>
      <trkpt lat="45.63863" lon="5.84263">
        <ele>483.68</ele>
        <time>2012-04-14T14:54:19Z</time>
      </trkpt>
      <trkpt lat="45.63865" lon="5.84274">
        <ele>480.32</ele>
        <time>2012-04-14T14:54:23Z</time>
      </trkpt>
      <trkpt lat="45.63864" lon="5.84278">
        <ele>479.35</ele>
        <time>2012-04-14T14:54:25Z</time>
      </trkpt>
      <trkpt lat="45.63863" lon="5.84287">
        <ele>478.39</ele>
        <time>2012-04-14T14:54:29Z</time>
      </trkpt>
      <trkpt lat="45.63865" lon="5.84308">
        <ele>477.91</ele>
        <time>2012-04-14T14:54:41Z</time>
      </trkpt>
      <trkpt lat="45.63867" lon="5.84322">
        <ele>476.95</ele>
        <time>2012-04-14T14:54:47Z</time>
      </trkpt>
      <trkpt lat="45.63874" lon="5.84334">
        <ele>472.14</ele>
        <time>2012-04-14T14:54:53Z</time>
      </trkpt>
      <trkpt lat="45.63877" lon="5.8434">
        <ele>471.18</ele>
        <time>2012-04-14T14:54:55Z</time>
      </trkpt>
      <trkpt lat="45.6388" lon="5.84344">
        <ele>470.7</ele>
        <time>2012-04-14T14:54:58Z</time>
      </trkpt>
      <trkpt lat="45.63885" lon="5.8435">
        <ele>470.7</ele>
        <time>2012-04-14T14:55:02Z</time>
      </trkpt>
      <trkpt lat="45.63891" lon="5.84359">
        <ele>470.22</ele>
        <time>2012-04-14T14:55:06Z</time>
      </trkpt>
      <trkpt lat="45.63899" lon="5.8437">
        <ele>466.38</ele>
        <time>2012-04-14T14:55:12Z</time>
      </trkpt>
      <trkpt lat="45.63903" lon="5.84374">
        <ele>463.01</ele>
        <time>2012-04-14T14:55:15Z</time>
      </trkpt>
      <trkpt lat="45.63908" lon="5.84375">
        <ele>460.13</ele>
        <time>2012-04-14T14:55:18Z</time>
      </trkpt>
      <trkpt lat="45.63915" lon="5.84379">
        <ele>458.21</ele>
        <time>2012-04-14T14:55:21Z</time>
      </trkpt>
      <trkpt lat="45.63926" lon="5.84388">
        <ele>458.21</ele>
        <time>2012-04-14T14:55:26Z</time>
      </trkpt>
      <trkpt lat="45.63935" lon="5.84394">
        <ele>457.72</ele>
        <time>2012-04-14T14:55:30Z</time>
      </trkpt>
      <trkpt lat="45.63935" lon="5.84401">
        <ele>454.36</ele>
        <time>2012-04-14T14:55:39Z</time>
      </trkpt>
      <trkpt lat="45.63934" lon="5.844">
        <ele>453.4</ele>
        <time>2012-04-14T14:55:40Z</time>
      </trkpt>
      <trkpt lat="45.63937" lon="5.84405">
        <ele>449.07</ele>
        <time>2012-04-14T14:55:44Z</time>
      </trkpt>
      <trkpt lat="45.63939" lon="5.84408">
        <ele>447.63</ele>
        <time>2012-04-14T14:55:46Z</time>
      </trkpt>
      <trkpt lat="45.63942" lon="5.8441">
        <ele>446.67</ele>
        <time>2012-04-14T14:55:49Z</time>
      </trkpt>
      <trkpt lat="45.63949" lon="5.84418">
        <ele>446.19</ele>
        <time>2012-04-14T14:55:54Z</time>
      </trkpt>
      <trkpt lat="45.6396" lon="5.84426">
        <ele>445.23</ele>
        <time>2012-04-14T14:56:00Z</time>
      </trkpt>
      <trkpt lat="45.63967" lon="5.84434">
        <ele>439.46</ele>
        <time>2012-04-14T14:56:05Z</time>
      </trkpt>
      <trkpt lat="45.63971" lon="5.8444">
        <ele>436.58</ele>
        <time>2012-04-14T14:56:08Z</time>
      </trkpt>
      <trkpt lat="45.63973" lon="5.84444">
        <ele>435.13</ele>
        <time>2012-04-14T14:56:10Z</time>
      </trkpt>
      <trkpt lat="45.63984" lon="5.84449">
        <ele>432.73</ele>
        <time>2012-04-14T14:56:18Z</time>
      </trkpt>
      <trkpt lat="45.63985" lon="5.8445">
        <ele>432.73</ele>
        <time>2012-04-14T14:56:19Z</time>
      </trkpt>
      <trkpt lat="45.64" lon="5.84459">
        <ele>428.89</ele>
        <time>2012-04-14T14:56:28Z</time>
      </trkpt>
      <trkpt lat="45.63999" lon="5.84461">
        <ele>427.44</ele>
        <time>2012-04-14T14:56:30Z</time>
      </trkpt>
      <trkpt lat="45.63996" lon="5.84469">
        <ele>422.64</ele>
        <time>2012-04-14T14:56:35Z</time>
      </trkpt>
      <trkpt lat="45.63991" lon="5.84479">
        <ele>420.23</ele>
        <time>2012-04-14T14:56:44Z</time>
      </trkpt>
      <trkpt lat="45.63992" lon="5.84479">
        <ele>420.23</ele>
        <time>2012-04-14T14:56:45Z</time>
      </trkpt>
      <trkpt lat="45.63995" lon="5.84479">
        <ele>415.91</ele>
        <time>2012-04-14T14:56:53Z</time>
      </trkpt>
      <trkpt lat="45.63995" lon="5.84479">
        <ele>414.95</ele>
        <time>2012-04-14T14:56:55Z</time>
      </trkpt>
      <trkpt lat="45.63994" lon="5.84482">
        <ele>413.98</ele>
        <time>2012-04-14T14:56:57Z</time>
      </trkpt>
      <trkpt lat="45.63999" lon="5.84487">
        <ele>411.58</ele>
        <time>2012-04-14T14:57:03Z</time>
      </trkpt>
      <trkpt lat="45.64014" lon="5.84486">
        <ele>410.62</ele>
        <time>2012-04-14T14:57:14Z</time>
      </trkpt>
      <trkpt lat="45.64017" lon="5.84493">
        <ele>406.77</ele>
        <time>2012-04-14T14:57:19Z</time>
      </trkpt>
      <trkpt lat="45.64017" lon="5.84498">
        <ele>404.37</ele>
        <time>2012-04-14T14:57:22Z</time>
      </trkpt>
      <trkpt lat="45.64016" lon="5.845">
        <ele>402.45</ele>
        <time>2012-04-14T14:57:24Z</time>
      </trkpt>
      <trkpt lat="45.64014" lon="5.84503">
        <ele>400.53</ele>
        <time>2012-04-14T14:57:27Z</time>
      </trkpt>
      <trkpt lat="45.6401" lon="5.84512">
        <ele>399.57</ele>
        <time>2012-04-14T14:57:40Z</time>
      </trkpt>
      <trkpt lat="45.64006" lon="5.8452">
        <ele>398.6</ele>
        <time>2012-04-14T14:57:50Z</time>
      </trkpt>
      <trkpt lat="45.64012" lon="5.84523">
        <ele>396.68</ele>
        <time>2012-04-14T14:57:56Z</time>
      </trkpt>
      <trkpt lat="45.64014" lon="5.84521">
        <ele>395.72</ele>
        <time>2012-04-14T14:57:58Z</time>
      </trkpt>
      <trkpt lat="45.64019" lon="5.84521">
        <ele>392.36</ele>
        <time>2012-04-14T14:58:01Z</time>
      </trkpt>
      <trkpt lat="45.64022" lon="5.84525">
        <ele>388.99</ele>
        <time>2012-04-14T14:58:05Z</time>
      </trkpt>
      <trkpt lat="45.64039" lon="5.84536">
        <ele>386.59</ele>
        <time>2012-04-14T14:58:15Z</time>
      </trkpt>
      <trkpt lat="45.64048" lon="5.84551">
        <ele>383.22</ele>
        <time>2012-04-14T14:58:21Z</time>
      </trkpt>
      <trkpt lat="45.64055" lon="5.84556">
        <ele>380.82</ele>
        <time>2012-04-14T14:58:24Z</time>
      </trkpt>
      <trkpt lat="45.64068" lon="5.84563">
        <ele>377.45</ele>
        <time>2012-04-14T14:58:30Z</time>
      </trkpt>
      <trkpt lat="45.64075" lon="5.84564">
        <ele>376.01</ele>
        <time>2012-04-14T14:58:33Z</time>
      </trkpt>
      <trkpt lat="45.64067" lon="5.84588">
        <ele>375.53</ele>
        <time>2012-04-14T14:58:43Z</time>
      </trkpt>
      <trkpt lat="45.64052" lon="5.84598">
        <ele>373.61</ele>
        <time>2012-04-14T14:58:51Z</time>
      </trkpt>
      <trkpt lat="45.64039" lon="5.84615">
        <ele>369.28</ele>
        <time>2012-04-14T14:58:57Z</time>
      </trkpt>
      <trkpt lat="45.64037" lon="5.84629">
        <ele>364.48</ele>
        <time>2012-04-14T14:59:01Z</time>
      </trkpt>
      <trkpt lat="45.64039" lon="5.8463">
        <ele>363.52</ele>
        <time>2012-04-14T14:59:02Z</time>
      </trkpt>
      <trkpt lat="45.64065" lon="5.84644">
        <ele>361.59</ele>
        <time>2012-04-14T14:59:14Z</time>
      </trkpt>
      <trkpt lat="45.64091" lon="5.84655">
        <ele>361.11</ele>
        <time>2012-04-14T14:59:24Z</time>
      </trkpt>
      <trkpt lat="45.64106" lon="5.8466">
        <ele>357.27</ele>
        <time>2012-04-14T14:59:29Z</time>
      </trkpt>
      <trkpt lat="45.64116" lon="5.84661">
        <ele>353.9</ele>
        <time>2012-04-14T14:59:33Z</time>
      </trkpt>
      <trkpt lat="45.64149" lon="5.84658">
        <ele>352.94</ele>
        <time>2012-04-14T14:59:44Z</time>
      </trkpt>
      <trkpt lat="45.64168" lon="5.84682">
        <ele>349.58</ele>
        <time>2012-04-14T14:59:53Z</time>
      </trkpt>
      <trkpt lat="45.64169" lon="5.84697">
        <ele>346.21</ele>
        <time>2012-04-14T14:59:56Z</time>
      </trkpt>
      <trkpt lat="45.64167" lon="5.84711">
        <ele>342.85</ele>
        <time>2012-04-14T14:59:59Z</time>
      </trkpt>
      <trkpt lat="45.64158" lon="5.84727">
        <ele>339.48</ele>
        <time>2012-04-14T15:00:04Z</time>
      </trkpt>
      <trkpt lat="45.64141" lon="5.84738">
        <ele>339.96</ele>
        <time>2012-04-14T15:00:10Z</time>
      </trkpt>
      <trkpt lat="45.64126" lon="5.84749">
        <ele>339.96</ele>
        <time>2012-04-14T15:00:16Z</time>
      </trkpt>
      <trkpt lat="45.64105" lon="5.84786">
        <ele>336.12</ele>
        <time>2012-04-14T15:00:28Z</time>
      </trkpt>
      <trkpt lat="45.64097" lon="5.84794">
        <ele>332.75</ele>
        <time>2012-04-14T15:00:31Z</time>
      </trkpt>
      <trkpt lat="45.64095" lon="5.84797">
        <ele>332.75</ele>
        <time>2012-04-14T15:00:32Z</time>
      </trkpt>
      <trkpt lat="45.64082" lon="5.84815">
        <ele>329.39</ele>
        <time>2012-04-14T15:00:38Z</time>
      </trkpt>
      <trkpt lat="45.64062" lon="5.84846">
        <ele>329.87</ele>
        <time>2012-04-14T15:00:48Z</time>
      </trkpt>
      <trkpt lat="45.64041" lon="5.84875">
        <ele>326.02</ele>
        <time>2012-04-14T15:00:59Z</time>
      </trkpt>
      <trkpt lat="45.6404" lon="5.8488">
        <ele>322.66</ele>
        <time>2012-04-14T15:01:03Z</time>
      </trkpt>
      <trkpt lat="45.64011" lon="5.84893">
        <ele>322.18</ele>
        <time>2012-04-14T15:01:14Z</time>
      </trkpt>
      <trkpt lat="45.63987" lon="5.849">
        <ele>322.18</ele>
        <time>2012-04-14T15:01:24Z</time>
      </trkpt>
      <trkpt lat="45.63959" lon="5.84919">
        <ele>320.26</ele>
        <time>2012-04-14T15:01:35Z</time>
      </trkpt>
      <trkpt lat="45.63957" lon="5.84922">
        <ele>320.26</ele>
        <time>2012-04-14T15:01:36Z</time>
      </trkpt>
      <trkpt lat="45.63921" lon="5.84929">
        <ele>319.78</ele>
        <time>2012-04-14T15:01:49Z</time>
      </trkpt>
      <trkpt lat="45.63882" lon="5.84936">
        <ele>320.26</ele>
        <time>2012-04-14T15:02:01Z</time>
      </trkpt>
      <trkpt lat="45.63842" lon="5.84933">
        <ele>319.78</ele>
        <time>2012-04-14T15:02:14Z</time>
      </trkpt>
      <trkpt lat="45.63807" lon="5.84924">
        <ele>318.33</ele>
        <time>2012-04-14T15:02:26Z</time>
      </trkpt>
      <trkpt lat="45.63775" lon="5.84919">
        <ele>314.97</ele>
        <time>2012-04-14T15:02:37Z</time>
      </trkpt>
      <trkpt lat="45.63762" lon="5.8492">
        <ele>311.12</ele>
        <time>2012-04-14T15:02:41Z</time>
      </trkpt>
      <trkpt lat="45.63755" lon="5.8492">
        <ele>310.16</ele>
        <time>2012-04-14T15:02:43Z</time>
      </trkpt>
      <trkpt lat="45.63705" lon="5.84934">
        <ele>309.2</ele>
        <time>2012-04-14T15:02:59Z</time>
      </trkpt>
      <trkpt lat="45.63667" lon="5.8494">
        <ele>309.2</ele>
        <time>2012-04-14T15:03:11Z</time>
      </trkpt>
      <trkpt lat="45.63633" lon="5.8494">
        <ele>309.2</ele>
        <time>2012-04-14T15:03:22Z</time>
      </trkpt>
      <trkpt lat="45.63597" lon="5.84935">
        <ele>309.2</ele>
        <time>2012-04-14T15:03:34Z</time>
      </trkpt>
      <trkpt lat="45.63565" lon="5.84929">
        <ele>309.2</ele>
        <time>2012-04-14T15:03:45Z</time>
      </trkpt>
      <trkpt lat="45.63522" lon="5.84925">
        <ele>309.2</ele>
        <time>2012-04-14T15:03:59Z</time>
      </trkpt>
      <trkpt lat="45.63483" lon="5.84928">
        <ele>309.2</ele>
        <time>2012-04-14T15:04:12Z</time>
      </trkpt>
      <trkpt lat="45.63451" lon="5.84933">
        <ele>309.68</ele>
        <time>2012-04-14T15:04:24Z</time>
      </trkpt>
      <trkpt lat="45.63415" lon="5.84932">
        <ele>309.68</ele>
        <time>2012-04-14T15:04:36Z</time>
      </trkpt>
      <trkpt lat="45.63377" lon="5.84924">
        <ele>308.72</ele>
        <time>2012-04-14T15:04:49Z</time>
      </trkpt>
      <trkpt lat="45.63348" lon="5.84913">
        <ele>307.28</ele>
        <time>2012-04-14T15:04:59Z</time>
      </trkpt>
      <trkpt lat="45.6332" lon="5.84913">
        <ele>306.32</ele>
        <time>2012-04-14T15:05:09Z</time>
      </trkpt>
      <trkpt lat="45.633" lon="5.84913">
        <ele>305.36</ele>
        <time>2012-04-14T15:05:17Z</time>
      </trkpt>
      <trkpt lat="45.6328" lon="5.84915">
        <ele>304.39</ele>
        <time>2012-04-14T15:05:25Z</time>
      </trkpt>
      <trkpt lat="45.63264" lon="5.84912">
        <ele>304.39</ele>
        <time>2012-04-14T15:05:30Z</time>
      </trkpt>
      <trkpt lat="45.63238" lon="5.84926">
        <ele>304.39</ele>
        <time>2012-04-14T15:05:40Z</time>
      </trkpt>
      <trkpt lat="45.6322" lon="5.84941">
        <ele>304.39</ele>
        <time>2012-04-14T15:05:48Z</time>
      </trkpt>
      <trkpt lat="45.63186" lon="5.84964">
        <ele>304.39</ele>
        <time>2012-04-14T15:06:00Z</time>
      </trkpt>
      <trkpt lat="45.63166" lon="5.84973">
        <ele>304.39</ele>
        <time>2012-04-14T15:06:09Z</time>
      </trkpt>
      <trkpt lat="45.63156" lon="5.8497">
        <ele>303.91</ele>
        <time>2012-04-14T15:06:16Z</time>
      </trkpt>
      <trkpt lat="45.63131" lon="5.84974">
        <ele>301.51</ele>
        <time>2012-04-14T15:06:26Z</time>
      </trkpt>
      <trkpt lat="45.63107" lon="5.84979">
        <ele>299.59</ele>
        <time>2012-04-14T15:06:34Z</time>
      </trkpt>
      <trkpt lat="45.631" lon="5.84984">
        <ele>299.59</ele>
        <time>2012-04-14T15:06:37Z</time>
      </trkpt>
      <trkpt lat="45.63059" lon="5.84986">
        <ele>298.63</ele>
        <time>2012-04-14T15:06:51Z</time>
      </trkpt>
      <trkpt lat="45.63025" lon="5.84979">
        <ele>298.63</ele>
        <time>2012-04-14T15:07:02Z</time>
      </trkpt>
      <trkpt lat="45.63016" lon="5.84979">
        <ele>299.59</ele>
        <time>2012-04-14T15:07:06Z</time>
      </trkpt>
      <trkpt lat="45.62978" lon="5.84976">
        <ele>301.99</ele>
        <time>2012-04-14T15:07:19Z</time>
      </trkpt>
      <trkpt lat="45.62953" lon="5.84977">
        <ele>303.91</ele>
        <time>2012-04-14T15:07:27Z</time>
      </trkpt>
      <trkpt lat="45.62937" lon="5.8502">
        <ele>306.32</ele>
        <time>2012-04-14T15:07:41Z</time>
      </trkpt>
      <trkpt lat="45.62942" lon="5.85054">
        <ele>306.32</ele>
        <time>2012-04-14T15:07:51Z</time>
      </trkpt>
      <trkpt lat="45.62959" lon="5.85073">
        <ele>306.8</ele>
        <time>2012-04-14T15:08:04Z</time>
      </trkpt>
      <trkpt lat="45.62985" lon="5.85091">
        <ele>306.8</ele>
        <time>2012-04-14T15:08:15Z</time>
      </trkpt>
      <trkpt lat="45.63015" lon="5.85123">
        <ele>307.28</ele>
        <time>2012-04-14T15:08:29Z</time>
      </trkpt>
      <trkpt lat="45.6306" lon="5.85144">
        <ele>308.24</ele>
        <time>2012-04-14T15:08:43Z</time>
      </trkpt>
      <trkpt lat="45.63102" lon="5.85159">
        <ele>308.72</ele>
        <time>2012-04-14T15:08:56Z</time>
      </trkpt>
      <trkpt lat="45.63142" lon="5.8517">
        <ele>309.68</ele>
        <time>2012-04-14T15:09:09Z</time>
      </trkpt>
      <trkpt lat="45.63176" lon="5.85183">
        <ele>310.64</ele>
        <time>2012-04-14T15:09:21Z</time>
      </trkpt>
      <trkpt lat="45.632" lon="5.85198">
        <ele>310.64</ele>
        <time>2012-04-14T15:09:31Z</time>
      </trkpt>
      <trkpt lat="45.63224" lon="5.8524">
        <ele>310.64</ele>
        <time>2012-04-14T15:09:44Z</time>
      </trkpt>
      <trkpt lat="45.63259" lon="5.85262">
        <ele>310.64</ele>
        <time>2012-04-14T15:09:56Z</time>
      </trkpt>
      <trkpt lat="45.63288" lon="5.8528">
        <ele>309.68</ele>
        <time>2012-04-14T15:10:06Z</time>
      </trkpt>
      <trkpt lat="45.63321" lon="5.85315">
        <ele>309.68</ele>
        <time>2012-04-14T15:10:19Z</time>
      </trkpt>
      <trkpt lat="45.63353" lon="5.85352">
        <ele>309.2</ele>
        <time>2012-04-14T15:10:32Z</time>
      </trkpt>
      <trkpt lat="45.63377" lon="5.85385">
        <ele>308.72</ele>
        <time>2012-04-14T15:10:43Z</time>
      </trkpt>
      <trkpt lat="45.63397" lon="5.85415">
        <ele>308.24</ele>
        <time>2012-04-14T15:10:54Z</time>
      </trkpt>
      <trkpt lat="45.63399" lon="5.85416">
        <ele>308.24</ele>
        <time>2012-04-14T15:10:55Z</time>
      </trkpt>
      <trkpt lat="45.63423" lon="5.85444">
        <ele>307.28</ele>
        <time>2012-04-14T15:11:06Z</time>
      </trkpt>
      <trkpt lat="45.63463" lon="5.85477">
        <ele>305.36</ele>
        <time>2012-04-14T15:11:19Z</time>
      </trkpt>
      <trkpt lat="45.63496" lon="5.85507">
        <ele>303.43</ele>
        <time>2012-04-14T15:11:31Z</time>
      </trkpt>
      <trkpt lat="45.63516" lon="5.85516">
        <ele>299.59</ele>
        <time>2012-04-14T15:11:38Z</time>
      </trkpt>
      <trkpt lat="45.63523" lon="5.85519">
        <ele>296.22</ele>
        <time>2012-04-14T15:11:41Z</time>
      </trkpt>
      <trkpt lat="45.63526" lon="5.85519">
        <ele>296.7</ele>
        <time>2012-04-14T15:11:42Z</time>
      </trkpt>
      <trkpt lat="45.63552" lon="5.85515">
        <ele>294.78</ele>
        <time>2012-04-14T15:11:52Z</time>
      </trkpt>
      <trkpt lat="45.63561" lon="5.85536">
        <ele>293.34</ele>
        <time>2012-04-14T15:12:00Z</time>
      </trkpt>
      <trkpt lat="45.63553" lon="5.85558">
        <ele>291.9</ele>
        <time>2012-04-14T15:12:08Z</time>
      </trkpt>
      <trkpt lat="45.63553" lon="5.85564">
        <ele>291.42</ele>
        <time>2012-04-14T15:12:10Z</time>
      </trkpt>
      <trkpt lat="45.63554" lon="5.85573">
        <ele>289.49</ele>
        <time>2012-04-14T15:12:13Z</time>
      </trkpt>
      <trkpt lat="45.63557" lon="5.8558">
        <ele>286.13</ele>
        <time>2012-04-14T15:12:17Z</time>
      </trkpt>
      <trkpt lat="45.63564" lon="5.85585">
        <ele>285.17</ele>
        <time>2012-04-14T15:12:21Z</time>
      </trkpt>
      <trkpt lat="45.63597" lon="5.85606">
        <ele>285.17</ele>
        <time>2012-04-14T15:12:34Z</time>
      </trkpt>
      <trkpt lat="45.63628" lon="5.85616">
        <ele>282.28</ele>
        <time>2012-04-14T15:12:46Z</time>
      </trkpt>
      <trkpt lat="45.63655" lon="5.85626">
        <ele>279.4</ele>
        <time>2012-04-14T15:12:57Z</time>
      </trkpt>
      <trkpt lat="45.6366" lon="5.85628">
        <ele>278.92</ele>
        <time>2012-04-14T15:12:59Z</time>
      </trkpt>
      <trkpt lat="45.63674" lon="5.8564">
        <ele>276.04</ele>
        <time>2012-04-14T15:13:04Z</time>
      </trkpt>
      <trkpt lat="45.63689" lon="5.85658">
        <ele>272.19</ele>
        <time>2012-04-14T15:13:10Z</time>
      </trkpt>
      <trkpt lat="45.6372" lon="5.85681">
        <ele>271.71</ele>
        <time>2012-04-14T15:13:20Z</time>
      </trkpt>
      <trkpt lat="45.63755" lon="5.85687">
        <ele>270.27</ele>
        <time>2012-04-14T15:13:31Z</time>
      </trkpt>
      <trkpt lat="45.63767" lon="5.85683">
        <ele>267.38</ele>
        <time>2012-04-14T15:13:39Z</time>
      </trkpt>
      <trkpt lat="45.6377" lon="5.85685">
        <ele>264.02</ele>
        <time>2012-04-14T15:13:44Z</time>
      </trkpt>
      <trkpt lat="45.63785" lon="5.85682">
        <ele>259.69</ele>
        <time>2012-04-14T15:13:50Z</time>
      </trkpt>
      <trkpt lat="45.63801" lon="5.85682">
        <ele>256.81</ele>
        <time>2012-04-14T15:13:57Z</time>
      </trkpt>
      <trkpt lat="45.63823" lon="5.85679">
        <ele>253.44</ele>
        <time>2012-04-14T15:14:05Z</time>
      </trkpt>
      <trkpt lat="45.63837" lon="5.85681">
        <ele>250.08</ele>
        <time>2012-04-14T15:14:11Z</time>
      </trkpt>
      <trkpt lat="45.6386" lon="5.85683">
        <ele>246.23</ele>
        <time>2012-04-14T15:14:18Z</time>
      </trkpt>
      <trkpt lat="45.63882" lon="5.85692">
        <ele>243.35</ele>
        <time>2012-04-14T15:14:27Z</time>
      </trkpt>
      <trkpt lat="45.63898" lon="5.85705">
        <ele>239.51</ele>
        <time>2012-04-14T15:14:34Z</time>
      </trkpt>
      <trkpt lat="45.63909" lon="5.85711">
        <ele>237.1</ele>
        <time>2012-04-14T15:14:39Z</time>
      </trkpt>
      <trkpt lat="45.63919" lon="5.85713">
        <ele>233.26</ele>
        <time>2012-04-14T15:14:44Z</time>
      </trkpt>
      <trkpt lat="45.6392" lon="5.85715">
        <ele>232.78</ele>
        <time>2012-04-14T15:14:45Z</time>
      </trkpt>
      <trkpt lat="45.63928" lon="5.85714">
        <ele>229.41</ele>
        <time>2012-04-14T15:14:50Z</time>
      </trkpt>
      <trkpt lat="45.63931" lon="5.85716">
        <ele>227.97</ele>
        <time>2012-04-14T15:14:52Z</time>
      </trkpt>
      <trkpt lat="45.63964" lon="5.85751">
        <ele>227.01</ele>
        <time>2012-04-14T15:15:06Z</time>
      </trkpt>
      <trkpt lat="45.63996" lon="5.85775">
        <ele>224.61</ele>
        <time>2012-04-14T15:15:17Z</time>
      </trkpt>
      <trkpt lat="45.64031" lon="5.85772">
        <ele>223.16</ele>
        <time>2012-04-14T15:15:29Z</time>
      </trkpt>
      <trkpt lat="45.64058" lon="5.85768">
        <ele>222.2</ele>
        <time>2012-04-14T15:15:39Z</time>
      </trkpt>
      <trkpt lat="45.64089" lon="5.85773">
        <ele>221.72</ele>
        <time>2012-04-14T15:15:50Z</time>
      </trkpt>
      <trkpt lat="45.6412" lon="5.85804">
        <ele>220.76</ele>
        <time>2012-04-14T15:16:03Z</time>
      </trkpt>
      <trkpt lat="45.64149" lon="5.85841">
        <ele>220.28</ele>
        <time>2012-04-14T15:16:15Z</time>
      </trkpt>
      <trkpt lat="45.64184" lon="5.85871">
        <ele>219.32</ele>
        <time>2012-04-14T15:16:28Z</time>
      </trkpt>
      <trkpt lat="45.64223" lon="5.85895">
        <ele>219.32</ele>
        <time>2012-04-14T15:16:41Z</time>
      </trkpt>
      <trkpt lat="45.64266" lon="5.85915">
        <ele>218.84</ele>
        <time>2012-04-14T15:16:56Z</time>
      </trkpt>
      <trkpt lat="45.64298" lon="5.85929">
        <ele>218.84</ele>
        <time>2012-04-14T15:17:07Z</time>
      </trkpt>
      <trkpt lat="45.64332" lon="5.85951">
        <ele>218.36</ele>
        <time>2012-04-14T15:17:19Z</time>
      </trkpt>
      <trkpt lat="45.64363" lon="5.85981">
        <ele>217.88</ele>
        <time>2012-04-14T15:17:31Z</time>
      </trkpt>
      <trkpt lat="45.64389" lon="5.86006">
        <ele>217.4</ele>
        <time>2012-04-14T15:17:42Z</time>
      </trkpt>
      <trkpt lat="45.64393" lon="5.86019">
        <ele>217.4</ele>
        <time>2012-04-14T15:17:46Z</time>
      </trkpt>
      <trkpt lat="45.64406" lon="5.86049">
        <ele>216.91</ele>
        <time>2012-04-14T15:17:55Z</time>
      </trkpt>
      <trkpt lat="45.64434" lon="5.86052">
        <ele>215.47</ele>
        <time>2012-04-14T15:18:06Z</time>
      </trkpt>
      <trkpt lat="45.64475" lon="5.86046">
        <ele>214.99</ele>
        <time>2012-04-14T15:18:20Z</time>
      </trkpt>
      <trkpt lat="45.64513" lon="5.86043">
        <ele>214.51</ele>
        <time>2012-04-14T15:18:33Z</time>
      </trkpt>
      <trkpt lat="45.64557" lon="5.86042">
        <ele>213.55</ele>
        <time>2012-04-14T15:18:48Z</time>
      </trkpt>
      <trkpt lat="45.64581" lon="5.86041">
        <ele>213.07</ele>
        <time>2012-04-14T15:18:58Z</time>
      </trkpt>
      <trkpt lat="45.64588" lon="5.86041">
        <ele>213.07</ele>
        <time>2012-04-14T15:19:01Z</time>
      </trkpt>
      <trkpt lat="45.64592" lon="5.86044">
        <ele>212.59</ele>
        <time>2012-04-14T15:19:03Z</time>
      </trkpt>
      <trkpt lat="45.64602" lon="5.86052">
        <ele>212.59</ele>
        <time>2012-04-14T15:19:07Z</time>
      </trkpt>
      <trkpt lat="45.64612" lon="5.86061">
        <ele>212.59</ele>
        <time>2012-04-14T15:19:11Z</time>
      </trkpt>
      <trkpt lat="45.64622" lon="5.86063">
        <ele>212.59</ele>
        <time>2012-04-14T15:19:15Z</time>
      </trkpt>
      <trkpt lat="45.64652" lon="5.86051">
        <ele>212.59</ele>
        <time>2012-04-14T15:19:28Z</time>
      </trkpt>
      <trkpt lat="45.6468" lon="5.8604">
        <ele>212.59</ele>
        <time>2012-04-14T15:19:39Z</time>
      </trkpt>
      <trkpt lat="45.64704" lon="5.86037">
        <ele>214.51</ele>
        <time>2012-04-14T15:19:50Z</time>
      </trkpt>
      <trkpt lat="45.64727" lon="5.86031">
        <ele>214.51</ele>
        <time>2012-04-14T15:19:58Z</time>
      </trkpt>
      <trkpt lat="45.64739" lon="5.86033">
        <ele>214.51</ele>
        <time>2012-04-14T15:20:02Z</time>
      </trkpt>
      <trkpt lat="45.64741" lon="5.86065">
        <ele>214.51</ele>
        <time>2012-04-14T15:20:11Z</time>
      </trkpt>
      <trkpt lat="45.64753" lon="5.86079">
        <ele>214.51</ele>
        <time>2012-04-14T15:20:16Z</time>
      </trkpt>
      <trkpt lat="45.64758" lon="5.86083">
        <ele>214.51</ele>
        <time>2012-04-14T15:20:18Z</time>
      </trkpt>
      <trkpt lat="45.64768" lon="5.8611">
        <ele>213.55</ele>
        <time>2012-04-14T15:20:26Z</time>
      </trkpt>
      <trkpt lat="45.64774" lon="5.86159">
        <ele>212.59</ele>
        <time>2012-04-14T15:20:38Z</time>
      </trkpt>
      <trkpt lat="45.6478" lon="5.86202">
        <ele>212.11</ele>
        <time>2012-04-14T15:20:47Z</time>
      </trkpt>
      <trkpt lat="45.64781" lon="5.86247">
        <ele>211.15</ele>
        <time>2012-04-14T15:20:58Z</time>
      </trkpt>
      <trkpt lat="45.6478" lon="5.86287">
        <ele>210.67</ele>
        <time>2012-04-14T15:21:09Z</time>
      </trkpt>
      <trkpt lat="45.64778" lon="5.86294">
        <ele>210.67</ele>
        <time>2012-04-14T15:21:11Z</time>
      </trkpt>
      <trkpt lat="45.64762" lon="5.86321">
        <ele>210.67</ele>
        <time>2012-04-14T15:21:21Z</time>
      </trkpt>
      <trkpt lat="45.64746" lon="5.86341">
        <ele>210.67</ele>
        <time>2012-04-14T15:21:31Z</time>
      </trkpt>
      <trkpt lat="45.64739" lon="5.86346">
        <ele>210.67</ele>
        <time>2012-04-14T15:21:35Z</time>
      </trkpt>
      <trkpt lat="45.64712" lon="5.86369">
        <ele>210.67</ele>
        <time>2012-04-14T15:21:48Z</time>
      </trkpt>
      <trkpt lat="45.64689" lon="5.86392">
        <ele>209.7</ele>
        <time>2012-04-14T15:21:57Z</time>
      </trkpt>
      <trkpt lat="45.64671" lon="5.86431">
        <ele>209.22</ele>
        <time>2012-04-14T15:22:08Z</time>
      </trkpt>
      <trkpt lat="45.64638" lon="5.86468">
        <ele>209.22</ele>
        <time>2012-04-14T15:22:20Z</time>
      </trkpt>
      <trkpt lat="45.64633" lon="5.86479">
        <ele>210.19</ele>
        <time>2012-04-14T15:22:22Z</time>
      </trkpt>
      <trkpt lat="45.64635" lon="5.86529">
        <ele>211.15</ele>
        <time>2012-04-14T15:22:33Z</time>
      </trkpt>
      <trkpt lat="45.6464" lon="5.86535">
        <ele>211.15</ele>
        <time>2012-04-14T15:22:36Z</time>
      </trkpt>
      <trkpt lat="45.64665" lon="5.86516">
        <ele>211.15</ele>
        <time>2012-04-14T15:22:48Z</time>
      </trkpt>
      <trkpt lat="45.64696" lon="5.86484">
        <ele>209.7</ele>
        <time>2012-04-14T15:23:00Z</time>
      </trkpt>
      <trkpt lat="45.64728" lon="5.86474">
        <ele>209.22</ele>
        <time>2012-04-14T15:23:12Z</time>
      </trkpt>
      <trkpt lat="45.64757" lon="5.8649">
        <ele>209.22</ele>
        <time>2012-04-14T15:23:23Z</time>
      </trkpt>
      <trkpt lat="45.6478" lon="5.86511">
        <ele>208.26</ele>
        <time>2012-04-14T15:23:33Z</time>
      </trkpt>
      <trkpt lat="45.64797" lon="5.86518">
        <ele>207.78</ele>
        <time>2012-04-14T15:23:38Z</time>
      </trkpt>
      <trkpt lat="45.64802" lon="5.86536">
        <ele>207.78</ele>
        <time>2012-04-14T15:23:44Z</time>
      </trkpt>
      <trkpt lat="45.64799" lon="5.86554">
        <ele>207.78</ele>
        <time>2012-04-14T15:23:49Z</time>
      </trkpt>
      <trkpt lat="45.64801" lon="5.8656">
        <ele>207.78</ele>
        <time>2012-04-14T15:23:51Z</time>
      </trkpt>
      <trkpt lat="45.64803" lon="5.8658">
        <ele>207.78</ele>
        <time>2012-04-14T15:23:58Z</time>
      </trkpt>
      <trkpt lat="45.64808" lon="5.86615">
        <ele>207.78</ele>
        <time>2012-04-14T15:24:09Z</time>
      </trkpt>
      <trkpt lat="45.64815" lon="5.8665">
        <ele>207.3</ele>
        <time>2012-04-14T15:24:22Z</time>
      </trkpt>
      <trkpt lat="45.64817" lon="5.8669">
        <ele>207.3</ele>
        <time>2012-04-14T15:24:34Z</time>
      </trkpt>
      <trkpt lat="45.64814" lon="5.86741">
        <ele>206.82</ele>
        <time>2012-04-14T15:24:48Z</time>
      </trkpt>
      <trkpt lat="45.64813" lon="5.86783">
        <ele>206.82</ele>
        <time>2012-04-14T15:24:57Z</time>
      </trkpt>
      <trkpt lat="45.64815" lon="5.86825">
        <ele>206.34</ele>
        <time>2012-04-14T15:25:08Z</time>
      </trkpt>
      <trkpt lat="45.64813" lon="5.8685">
        <ele>206.34</ele>
        <time>2012-04-14T15:25:15Z</time>
      </trkpt>
      <trkpt lat="45.64815" lon="5.86875">
        <ele>205.86</ele>
        <time>2012-04-14T15:25:22Z</time>
      </trkpt>
      <trkpt lat="45.64816" lon="5.8688">
        <ele>205.86</ele>
        <time>2012-04-14T15:25:24Z</time>
      </trkpt>
      <trkpt lat="45.64817" lon="5.86889">
        <ele>205.86</ele>
        <time>2012-04-14T15:25:26Z</time>
      </trkpt>
      <trkpt lat="45.64812" lon="5.86912">
        <ele>205.38</ele>
        <time>2012-04-14T15:25:32Z</time>
      </trkpt>
      <trkpt lat="45.6481" lon="5.86919">
        <ele>205.38</ele>
        <time>2012-04-14T15:25:34Z</time>
      </trkpt>
      <trkpt lat="45.64812" lon="5.86955">
        <ele>204.9</ele>
        <time>2012-04-14T15:25:42Z</time>
      </trkpt>
      <trkpt lat="45.64814" lon="5.8701">
        <ele>203.94</ele>
        <time>2012-04-14T15:25:53Z</time>
      </trkpt>
      <trkpt lat="45.64815" lon="5.87036">
        <ele>203.94</ele>
        <time>2012-04-14T15:25:59Z</time>
      </trkpt>
      <trkpt lat="45.64816" lon="5.87057">
        <ele>203.46</ele>
        <time>2012-04-14T15:26:04Z</time>
      </trkpt>
      <trkpt lat="45.64817" lon="5.87091">
        <ele>202.98</ele>
        <time>2012-04-14T15:26:13Z</time>
      </trkpt>
      <trkpt lat="45.64827" lon="5.87136">
        <ele>202.49</ele>
        <time>2012-04-14T15:26:22Z</time>
      </trkpt>
      <trkpt lat="45.64827" lon="5.87171">
        <ele>202.49</ele>
        <time>2012-04-14T15:26:30Z</time>
      </trkpt>
      <trkpt lat="45.64828" lon="5.87236">
        <ele>202.01</ele>
        <time>2012-04-14T15:26:41Z</time>
      </trkpt>
      <trkpt lat="45.6483" lon="5.87256">
        <ele>201.53</ele>
        <time>2012-04-14T15:26:44Z</time>
      </trkpt>
      <trkpt lat="45.64835" lon="5.87313">
        <ele>201.53</ele>
        <time>2012-04-14T15:26:54Z</time>
      </trkpt>
      <trkpt lat="45.6483" lon="5.8736">
        <ele>201.05</ele>
        <time>2012-04-14T15:27:03Z</time>
      </trkpt>
      <trkpt lat="45.6483" lon="5.87365">
        <ele>201.05</ele>
        <time>2012-04-14T15:27:04Z</time>
      </trkpt>
      <trkpt lat="45.64829" lon="5.87373">
        <ele>201.05</ele>
        <time>2012-04-14T15:27:06Z</time>
      </trkpt>
      <trkpt lat="45.6483" lon="5.87398">
        <ele>201.05</ele>
        <time>2012-04-14T15:27:11Z</time>
      </trkpt>
      <trkpt lat="45.64833" lon="5.87465">
        <ele>200.57</ele>
        <time>2012-04-14T15:27:23Z</time>
      </trkpt>
      <trkpt lat="45.64832" lon="5.87525">
        <ele>200.57</ele>
        <time>2012-04-14T15:27:34Z</time>
      </trkpt>
      <trkpt lat="45.64831" lon="5.8758">
        <ele>200.57</ele>
        <time>2012-04-14T15:27:46Z</time>
      </trkpt>
      <trkpt lat="45.64832" lon="5.87622">
        <ele>200.57</ele>
        <time>2012-04-14T15:27:56Z</time>
      </trkpt>
      <trkpt lat="45.64831" lon="5.87679">
        <ele>200.57</ele>
        <time>2012-04-14T15:28:08Z</time>
      </trkpt>
      <trkpt lat="45.6483" lon="5.87735">
        <ele>200.57</ele>
        <time>2012-04-14T15:28:20Z</time>
      </trkpt>
      <trkpt lat="45.64829" lon="5.87798">
        <ele>200.57</ele>
        <time>2012-04-14T15:28:32Z</time>
      </trkpt>
      <trkpt lat="45.64829" lon="5.87833">
        <ele>201.05</ele>
        <time>2012-04-14T15:28:40Z</time>
      </trkpt>
      <trkpt lat="45.64829" lon="5.87873">
        <ele>201.05</ele>
        <time>2012-04-14T15:28:49Z</time>
      </trkpt>
      <trkpt lat="45.64828" lon="5.879">
        <ele>201.05</ele>
        <time>2012-04-14T15:28:55Z</time>
      </trkpt>
      <trkpt lat="45.64828" lon="5.87948">
        <ele>201.05</ele>
        <time>2012-04-14T15:29:06Z</time>
      </trkpt>
      <trkpt lat="45.64827" lon="5.87991">
        <ele>201.53</ele>
        <time>2012-04-14T15:29:16Z</time>
      </trkpt>
      <trkpt lat="45.64827" lon="5.88036">
        <ele>201.53</ele>
        <time>2012-04-14T15:29:26Z</time>
      </trkpt>
      <trkpt lat="45.64826" lon="5.88084">
        <ele>201.53</ele>
        <time>2012-04-14T15:29:37Z</time>
      </trkpt>
      <trkpt lat="45.64826" lon="5.88126">
        <ele>202.01</ele>
        <time>2012-04-14T15:29:46Z</time>
      </trkpt>
      <trkpt lat="45.64825" lon="5.88173">
        <ele>201.53</ele>
        <time>2012-04-14T15:29:56Z</time>
      </trkpt>
      <trkpt lat="45.64824" lon="5.8822">
        <ele>201.53</ele>
        <time>2012-04-14T15:30:06Z</time>
      </trkpt>
      <trkpt lat="45.64823" lon="5.8827">
        <ele>202.01</ele>
        <time>2012-04-14T15:30:17Z</time>
      </trkpt>
      <trkpt lat="45.64823" lon="5.88316">
        <ele>202.01</ele>
        <time>2012-04-14T15:30:27Z</time>
      </trkpt>
      <trkpt lat="45.64823" lon="5.8836">
        <ele>202.49</ele>
        <time>2012-04-14T15:30:37Z</time>
      </trkpt>
      <trkpt lat="45.64823" lon="5.88401">
        <ele>202.49</ele>
        <time>2012-04-14T15:30:46Z</time>
      </trkpt>
      <trkpt lat="45.64824" lon="5.88437">
        <ele>202.49</ele>
        <time>2012-04-14T15:30:55Z</time>
      </trkpt>
      <trkpt lat="45.64824" lon="5.88441">
        <ele>202.49</ele>
        <time>2012-04-14T15:30:56Z</time>
      </trkpt>
      <trkpt lat="45.64824" lon="5.88458">
        <ele>202.49</ele>
        <time>2012-04-14T15:31:00Z</time>
      </trkpt>
      <trkpt lat="45.64822" lon="5.88497">
        <ele>202.98</ele>
        <time>2012-04-14T15:31:10Z</time>
      </trkpt>
      <trkpt lat="45.64821" lon="5.8853">
        <ele>202.98</ele>
        <time>2012-04-14T15:31:19Z</time>
      </trkpt>
      <trkpt lat="45.6482" lon="5.88571">
        <ele>202.98</ele>
        <time>2012-04-14T15:31:30Z</time>
      </trkpt>
      <trkpt lat="45.64819" lon="5.88611">
        <ele>202.98</ele>
        <time>2012-04-14T15:31:40Z</time>
      </trkpt>
      <trkpt lat="45.64819" lon="5.88661">
        <ele>202.98</ele>
        <time>2012-04-14T15:31:51Z</time>
      </trkpt>
      <trkpt lat="45.64821" lon="5.88703">
        <ele>202.98</ele>
        <time>2012-04-14T15:32:01Z</time>
      </trkpt>
      <trkpt lat="45.64821" lon="5.8872">
        <ele>202.98</ele>
        <time>2012-04-14T15:32:06Z</time>
      </trkpt>
      <trkpt lat="45.6482" lon="5.88729">
        <ele>202.49</ele>
        <time>2012-04-14T15:32:09Z</time>
      </trkpt>
      <trkpt lat="45.6482" lon="5.88754">
        <ele>202.49</ele>
        <time>2012-04-14T15:32:14Z</time>
      </trkpt>
      <trkpt lat="45.64817" lon="5.88817">
        <ele>202.49</ele>
        <time>2012-04-14T15:32:26Z</time>
      </trkpt>
      <trkpt lat="45.64818" lon="5.88881">
        <ele>202.49</ele>
        <time>2012-04-14T15:32:39Z</time>
      </trkpt>
      <trkpt lat="45.64819" lon="5.88934">
        <ele>202.01</ele>
        <time>2012-04-14T15:32:50Z</time>
      </trkpt>
      <trkpt lat="45.64816" lon="5.88992">
        <ele>202.01</ele>
        <time>2012-04-14T15:33:01Z</time>
      </trkpt>
      <trkpt lat="45.64818" lon="5.89041">
        <ele>202.01</ele>
        <time>2012-04-14T15:33:12Z</time>
      </trkpt>
      <trkpt lat="45.64821" lon="5.891">
        <ele>202.01</ele>
        <time>2012-04-14T15:33:25Z</time>
      </trkpt>
      <trkpt lat="45.64831" lon="5.89149">
        <ele>202.01</ele>
        <time>2012-04-14T15:33:36Z</time>
      </trkpt>
      <trkpt lat="45.64837" lon="5.89205">
        <ele>202.01</ele>
        <time>2012-04-14T15:33:48Z</time>
      </trkpt>
      <trkpt lat="45.64852" lon="5.89217">
        <ele>202.01</ele>
        <time>2012-04-14T15:33:54Z</time>
      </trkpt>
      <trkpt lat="45.64856" lon="5.89229">
        <ele>202.01</ele>
        <time>2012-04-14T15:33:58Z</time>
      </trkpt>
      <trkpt lat="45.64864" lon="5.89269">
        <ele>202.01</ele>
        <time>2012-04-14T15:34:11Z</time>
      </trkpt>
      <trkpt lat="45.64865" lon="5.89269">
        <ele>202.01</ele>
        <time>2012-04-14T15:34:12Z</time>
      </trkpt>
      <trkpt lat="45.6489" lon="5.89268">
        <ele>202.01</ele>
        <time>2012-04-14T15:34:22Z</time>
      </trkpt>
      <trkpt lat="45.64921" lon="5.89258">
        <ele>202.01</ele>
        <time>2012-04-14T15:34:33Z</time>
      </trkpt>
      <trkpt lat="45.64926" lon="5.89278">
        <ele>202.98</ele>
        <time>2012-04-14T15:34:39Z</time>
      </trkpt>
      <trkpt lat="45.64928" lon="5.89306">
        <ele>202.98</ele>
        <time>2012-04-14T15:34:49Z</time>
      </trkpt>
      <trkpt lat="45.64927" lon="5.8931">
        <ele>202.98</ele>
        <time>2012-04-14T15:34:50Z</time>
      </trkpt>
      <trkpt lat="45.64921" lon="5.89319">
        <ele>202.98</ele>
        <time>2012-04-14T15:34:54Z</time>
      </trkpt>
      <trkpt lat="45.64887" lon="5.89322">
        <ele>202.98</ele>
        <time>2012-04-14T15:35:06Z</time>
      </trkpt>
      <trkpt lat="45.64846" lon="5.89322">
        <ele>202.98</ele>
        <time>2012-04-14T15:35:20Z</time>
      </trkpt>
      <trkpt lat="45.64814" lon="5.8933">
        <ele>202.98</ele>
        <time>2012-04-14T15:35:32Z</time>
      </trkpt>
      <trkpt lat="45.64805" lon="5.89365">
        <ele>202.98</ele>
        <time>2012-04-14T15:35:43Z</time>
      </trkpt>
      <trkpt lat="45.64804" lon="5.89426">
        <ele>202.98</ele>
        <time>2012-04-14T15:35:56Z</time>
      </trkpt>
      <trkpt lat="45.64795" lon="5.89487">
        <ele>202.98</ele>
        <time>2012-04-14T15:36:12Z</time>
      </trkpt>
      <trkpt lat="45.64768" lon="5.89531">
        <ele>202.98</ele>
        <time>2012-04-14T15:36:25Z</time>
      </trkpt>
      <trkpt lat="45.64743" lon="5.89565">
        <ele>202.98</ele>
        <time>2012-04-14T15:36:36Z</time>
      </trkpt>
      <trkpt lat="45.64718" lon="5.89604">
        <ele>202.98</ele>
        <time>2012-04-14T15:36:49Z</time>
      </trkpt>
      <trkpt lat="45.6469" lon="5.8965">
        <ele>202.98</ele>
        <time>2012-04-14T15:37:02Z</time>
      </trkpt>
      <trkpt lat="45.64662" lon="5.89695">
        <ele>203.46</ele>
        <time>2012-04-14T15:37:15Z</time>
      </trkpt>
      <trkpt lat="45.6465" lon="5.8974">
        <ele>203.46</ele>
        <time>2012-04-14T15:37:26Z</time>
      </trkpt>
      <trkpt lat="45.64655" lon="5.89755">
        <ele>203.46</ele>
        <time>2012-04-14T15:37:30Z</time>
      </trkpt>
      <trkpt lat="45.64692" lon="5.89786">
        <ele>203.94</ele>
        <time>2012-04-14T15:37:44Z</time>
      </trkpt>
      <trkpt lat="45.64722" lon="5.89801">
        <ele>204.42</ele>
        <time>2012-04-14T15:37:56Z</time>
      </trkpt>
      <trkpt lat="45.64754" lon="5.89823">
        <ele>204.9</ele>
        <time>2012-04-14T15:38:09Z</time>
      </trkpt>
      <trkpt lat="45.64786" lon="5.89836">
        <ele>204.9</ele>
        <time>2012-04-14T15:38:21Z</time>
      </trkpt>
      <trkpt lat="45.64819" lon="5.89853">
        <ele>205.38</ele>
        <time>2012-04-14T15:38:34Z</time>
      </trkpt>
      <trkpt lat="45.64852" lon="5.89876">
        <ele>205.86</ele>
        <time>2012-04-14T15:38:46Z</time>
      </trkpt>
      <trkpt lat="45.64883" lon="5.899">
        <ele>206.34</ele>
        <time>2012-04-14T15:38:57Z</time>
      </trkpt>
      <trkpt lat="45.64922" lon="5.8992">
        <ele>206.34</ele>
        <time>2012-04-14T15:39:10Z</time>
      </trkpt>
      <trkpt lat="45.64959" lon="5.89931">
        <ele>206.34</ele>
        <time>2012-04-14T15:39:22Z</time>
      </trkpt>
      <trkpt lat="45.64994" lon="5.89937">
        <ele>206.82</ele>
        <time>2012-04-14T15:39:34Z</time>
      </trkpt>
      <trkpt lat="45.65023" lon="5.89942">
        <ele>207.3</ele>
        <time>2012-04-14T15:39:44Z</time>
      </trkpt>
      <trkpt lat="45.65056" lon="5.89948">
        <ele>208.26</ele>
        <time>2012-04-14T15:39:56Z</time>
      </trkpt>
      <trkpt lat="45.65098" lon="5.89961">
        <ele>209.22</ele>
        <time>2012-04-14T15:40:11Z</time>
      </trkpt>
      <trkpt lat="45.65117" lon="5.89973">
        <ele>210.67</ele>
        <time>2012-04-14T15:40:19Z</time>
      </trkpt>
      <trkpt lat="45.65122" lon="5.90012">
        <ele>212.11</ele>
        <time>2012-04-14T15:40:30Z</time>
      </trkpt>
      <trkpt lat="45.6512" lon="5.90081">
        <ele>212.59</ele>
        <time>2012-04-14T15:40:43Z</time>
      </trkpt>
      <trkpt lat="45.65115" lon="5.90136">
        <ele>213.07</ele>
        <time>2012-04-14T15:40:56Z</time>
      </trkpt>
      <trkpt lat="45.65114" lon="5.9018">
        <ele>214.03</ele>
        <time>2012-04-14T15:41:07Z</time>
      </trkpt>
      <trkpt lat="45.65116" lon="5.90229">
        <ele>216.43</ele>
        <time>2012-04-14T15:41:19Z</time>
      </trkpt>
      <trkpt lat="45.65107" lon="5.90275">
        <ele>219.32</ele>
        <time>2012-04-14T15:41:32Z</time>
      </trkpt>
      <trkpt lat="45.65099" lon="5.90294">
        <ele>223.16</ele>
        <time>2012-04-14T15:41:38Z</time>
      </trkpt>
      <trkpt lat="45.6509" lon="5.90307">
        <ele>226.53</ele>
        <time>2012-04-14T15:41:43Z</time>
      </trkpt>
      <trkpt lat="45.65075" lon="5.90316">
        <ele>226.53</ele>
        <time>2012-04-14T15:41:49Z</time>
      </trkpt>
      <trkpt lat="45.65072" lon="5.90334">
        <ele>226.53</ele>
        <time>2012-04-14T15:41:56Z</time>
      </trkpt>
      <trkpt lat="45.65074" lon="5.9035">
        <ele>227.49</ele>
        <time>2012-04-14T15:42:02Z</time>
      </trkpt>
      <trkpt lat="45.65064" lon="5.90364">
        <ele>228.93</ele>
        <time>2012-04-14T15:42:09Z</time>
      </trkpt>
      <trkpt lat="45.65054" lon="5.90379">
        <ele>231.33</ele>
        <time>2012-04-14T15:42:17Z</time>
      </trkpt>
      <trkpt lat="45.65049" lon="5.90386">
        <ele>235.18</ele>
        <time>2012-04-14T15:42:22Z</time>
      </trkpt>
      <trkpt lat="45.6504" lon="5.90421">
        <ele>236.62</ele>
        <time>2012-04-14T15:42:33Z</time>
      </trkpt>
      <trkpt lat="45.65038" lon="5.90433">
        <ele>236.62</ele>
        <time>2012-04-14T15:42:37Z</time>
      </trkpt>
      <trkpt lat="45.65044" lon="5.90441">
        <ele>237.1</ele>
        <time>2012-04-14T15:42:41Z</time>
      </trkpt>
      <trkpt lat="45.65067" lon="5.90414">
        <ele>239.02</ele>
        <time>2012-04-14T15:42:55Z</time>
      </trkpt>
      <trkpt lat="45.65096" lon="5.90391">
        <ele>240.47</ele>
        <time>2012-04-14T15:43:07Z</time>
      </trkpt>
      <trkpt lat="45.65124" lon="5.90384">
        <ele>239.99</ele>
        <time>2012-04-14T15:43:17Z</time>
      </trkpt>
      <trkpt lat="45.65153" lon="5.90371">
        <ele>239.99</ele>
        <time>2012-04-14T15:43:30Z</time>
      </trkpt>
      <trkpt lat="45.65194" lon="5.90345">
        <ele>240.47</ele>
        <time>2012-04-14T15:43:44Z</time>
      </trkpt>
      <trkpt lat="45.65226" lon="5.90314">
        <ele>240.95</ele>
        <time>2012-04-14T15:43:57Z</time>
      </trkpt>
      <trkpt lat="45.6526" lon="5.90278">
        <ele>241.43</ele>
        <time>2012-04-14T15:44:11Z</time>
      </trkpt>
      <trkpt lat="45.65298" lon="5.90252">
        <ele>242.87</ele>
        <time>2012-04-14T15:44:25Z</time>
      </trkpt>
      <trkpt lat="45.65332" lon="5.90231">
        <ele>242.87</ele>
        <time>2012-04-14T15:44:37Z</time>
      </trkpt>
      <trkpt lat="45.65378" lon="5.90209">
        <ele>244.31</ele>
        <time>2012-04-14T15:44:52Z</time>
      </trkpt>
      <trkpt lat="45.65424" lon="5.90194">
        <ele>245.75</ele>
        <time>2012-04-14T15:45:07Z</time>
      </trkpt>
      <trkpt lat="45.65472" lon="5.90183">
        <ele>246.23</ele>
        <time>2012-04-14T15:45:22Z</time>
      </trkpt>
      <trkpt lat="45.65516" lon="5.9017">
        <ele>247.68</ele>
        <time>2012-04-14T15:45:37Z</time>
      </trkpt>
      <trkpt lat="45.65554" lon="5.90135">
        <ele>246.72</ele>
        <time>2012-04-14T15:45:51Z</time>
      </trkpt>
      <trkpt lat="45.65588" lon="5.901">
        <ele>244.79</ele>
        <time>2012-04-14T15:46:04Z</time>
      </trkpt>
      <trkpt lat="45.65629" lon="5.90098">
        <ele>243.83</ele>
        <time>2012-04-14T15:46:17Z</time>
      </trkpt>
      <trkpt lat="45.6566" lon="5.90092">
        <ele>244.31</ele>
        <time>2012-04-14T15:46:28Z</time>
      </trkpt>
      <trkpt lat="45.65684" lon="5.90082">
        <ele>244.31</ele>
        <time>2012-04-14T15:46:39Z</time>
      </trkpt>
      <trkpt lat="45.65722" lon="5.90081">
        <ele>243.83</ele>
        <time>2012-04-14T15:46:50Z</time>
      </trkpt>
      <trkpt lat="45.6576" lon="5.90085">
        <ele>243.83</ele>
        <time>2012-04-14T15:47:02Z</time>
      </trkpt>
      <trkpt lat="45.65796" lon="5.90082">
        <ele>243.83</ele>
        <time>2012-04-14T15:47:14Z</time>
      </trkpt>
      <trkpt lat="45.65832" lon="5.90095">
        <ele>243.83</ele>
        <time>2012-04-14T15:47:26Z</time>
      </trkpt>
      <trkpt lat="45.6586" lon="5.90112">
        <ele>244.31</ele>
        <time>2012-04-14T15:47:37Z</time>
      </trkpt>
      <trkpt lat="45.65891" lon="5.90139">
        <ele>245.27</ele>
        <time>2012-04-14T15:47:50Z</time>
      </trkpt>
      <trkpt lat="45.65908" lon="5.90152">
        <ele>245.27</ele>
        <time>2012-04-14T15:47:56Z</time>
      </trkpt>
      <trkpt lat="45.65945" lon="5.90185">
        <ele>245.27</ele>
        <time>2012-04-14T15:48:09Z</time>
      </trkpt>
      <trkpt lat="45.65981" lon="5.90222">
        <ele>246.72</ele>
        <time>2012-04-14T15:48:23Z</time>
      </trkpt>
      <trkpt lat="45.6601" lon="5.90253">
        <ele>247.2</ele>
        <time>2012-04-14T15:48:35Z</time>
      </trkpt>
      <trkpt lat="45.6604" lon="5.90285">
        <ele>247.2</ele>
        <time>2012-04-14T15:48:48Z</time>
      </trkpt>
      <trkpt lat="45.66077" lon="5.90317">
        <ele>247.2</ele>
        <time>2012-04-14T15:49:04Z</time>
      </trkpt>
      <trkpt lat="45.66096" lon="5.90339">
        <ele>247.2</ele>
        <time>2012-04-14T15:49:11Z</time>
      </trkpt>
      <trkpt lat="45.66108" lon="5.90389">
        <ele>247.68</ele>
        <time>2012-04-14T15:49:24Z</time>
      </trkpt>
      <trkpt lat="45.6611" lon="5.90433">
        <ele>248.64</ele>
        <time>2012-04-14T15:49:37Z</time>
      </trkpt>
      <trkpt lat="45.66109" lon="5.90463">
        <ele>249.12</ele>
        <time>2012-04-14T15:49:47Z</time>
      </trkpt>
      <trkpt lat="45.66107" lon="5.90522">
        <ele>250.56</ele>
        <time>2012-04-14T15:50:02Z</time>
      </trkpt>
      <trkpt lat="45.66103" lon="5.90601">
        <ele>250.56</ele>
        <time>2012-04-14T15:50:16Z</time>
      </trkpt>
      <trkpt lat="45.661" lon="5.90658">
        <ele>250.56</ele>
        <time>2012-04-14T15:50:28Z</time>
      </trkpt>
      <trkpt lat="45.66095" lon="5.90718">
        <ele>247.68</ele>
        <time>2012-04-14T15:50:41Z</time>
      </trkpt>
      <trkpt lat="45.66091" lon="5.90767">
        <ele>244.31</ele>
        <time>2012-04-14T15:50:50Z</time>
      </trkpt>
      <trkpt lat="45.66089" lon="5.90786">
        <ele>239.99</ele>
        <time>2012-04-14T15:50:54Z</time>
      </trkpt>
      <trkpt lat="45.66088" lon="5.90846">
        <ele>237.58</ele>
        <time>2012-04-14T15:51:06Z</time>
      </trkpt>
      <trkpt lat="45.66087" lon="5.9088">
        <ele>237.58</ele>
        <time>2012-04-14T15:51:13Z</time>
      </trkpt>
      <trkpt lat="45.66097" lon="5.90909">
        <ele>236.14</ele>
        <time>2012-04-14T15:51:23Z</time>
      </trkpt>
      <trkpt lat="45.661" lon="5.90917">
        <ele>236.14</ele>
        <time>2012-04-14T15:51:25Z</time>
      </trkpt>
      <trkpt lat="45.66096" lon="5.90944">
        <ele>236.14</ele>
        <time>2012-04-14T15:51:31Z</time>
      </trkpt>
      <trkpt lat="45.66098" lon="5.91">
        <ele>236.14</ele>
        <time>2012-04-14T15:51:43Z</time>
      </trkpt>
      <trkpt lat="45.6609" lon="5.91055">
        <ele>239.02</ele>
        <time>2012-04-14T15:51:57Z</time>
      </trkpt>
      <trkpt lat="45.66075" lon="5.91096">
        <ele>240.47</ele>
        <time>2012-04-14T15:52:09Z</time>
      </trkpt>
      <trkpt lat="45.66048" lon="5.91104">
        <ele>240.95</ele>
        <time>2012-04-14T15:52:20Z</time>
      </trkpt>
      <trkpt lat="45.66018" lon="5.91117">
        <ele>242.39</ele>
        <time>2012-04-14T15:52:32Z</time>
      </trkpt>
      <trkpt lat="45.66009" lon="5.91135">
        <ele>242.87</ele>
        <time>2012-04-14T15:52:37Z</time>
      </trkpt>
      <trkpt lat="45.65992" lon="5.91187">
        <ele>243.35</ele>
        <time>2012-04-14T15:52:50Z</time>
      </trkpt>
      <trkpt lat="45.65994" lon="5.91225">
        <ele>241.91</ele>
        <time>2012-04-14T15:53:00Z</time>
      </trkpt>
      <trkpt lat="45.65999" lon="5.91257">
        <ele>241.43</ele>
        <time>2012-04-14T15:53:10Z</time>
      </trkpt>
      <trkpt lat="45.66002" lon="5.91302">
        <ele>240.95</ele>
        <time>2012-04-14T15:53:23Z</time>
      </trkpt>
      <trkpt lat="45.66007" lon="5.91364">
        <ele>240.95</ele>
        <time>2012-04-14T15:53:38Z</time>
      </trkpt>
      <trkpt lat="45.66012" lon="5.91414">
        <ele>240.47</ele>
        <time>2012-04-14T15:53:49Z</time>
      </trkpt>
      <trkpt lat="45.66023" lon="5.91468">
        <ele>240.47</ele>
        <time>2012-04-14T15:54:02Z</time>
      </trkpt>
      <trkpt lat="45.66043" lon="5.91505">
        <ele>241.91</ele>
        <time>2012-04-14T15:54:14Z</time>
      </trkpt>
      <trkpt lat="45.66076" lon="5.91504">
        <ele>242.39</ele>
        <time>2012-04-14T15:54:26Z</time>
      </trkpt>
      <trkpt lat="45.66095" lon="5.91497">
        <ele>242.87</ele>
        <time>2012-04-14T15:54:33Z</time>
      </trkpt>
      <trkpt lat="45.66103" lon="5.91519">
        <ele>243.83</ele>
        <time>2012-04-14T15:54:41Z</time>
      </trkpt>
      <trkpt lat="45.66103" lon="5.91527">
        <ele>243.83</ele>
        <time>2012-04-14T15:54:43Z</time>
      </trkpt>
      <trkpt lat="45.66107" lon="5.9157">
        <ele>244.31</ele>
        <time>2012-04-14T15:54:55Z</time>
      </trkpt>
      <trkpt lat="45.66112" lon="5.91617">
        <ele>245.27</ele>
        <time>2012-04-14T15:55:07Z</time>
      </trkpt>
      <trkpt lat="45.66109" lon="5.91671">
        <ele>246.23</ele>
        <time>2012-04-14T15:55:20Z</time>
      </trkpt>
      <trkpt lat="45.6611" lon="5.91728">
        <ele>247.2</ele>
        <time>2012-04-14T15:55:33Z</time>
      </trkpt>
      <trkpt lat="45.66112" lon="5.91771">
        <ele>247.2</ele>
        <time>2012-04-14T15:55:44Z</time>
      </trkpt>
      <trkpt lat="45.66101" lon="5.91811">
        <ele>247.68</ele>
        <time>2012-04-14T15:55:54Z</time>
      </trkpt>
      <trkpt lat="45.66094" lon="5.91853">
        <ele>248.16</ele>
        <time>2012-04-14T15:56:04Z</time>
      </trkpt>
      <trkpt lat="45.6608" lon="5.91906">
        <ele>249.12</ele>
        <time>2012-04-14T15:56:18Z</time>
      </trkpt>
      <trkpt lat="45.66071" lon="5.91949">
        <ele>249.12</ele>
        <time>2012-04-14T15:56:29Z</time>
      </trkpt>
      <trkpt lat="45.66071" lon="5.91952">
        <ele>250.08</ele>
        <time>2012-04-14T15:56:30Z</time>
      </trkpt>
      <trkpt lat="45.66076" lon="5.91963">
        <ele>249.6</ele>
        <time>2012-04-14T15:56:34Z</time>
      </trkpt>
      <trkpt lat="45.66103" lon="5.91959">
        <ele>251.04</ele>
        <time>2012-04-14T15:56:44Z</time>
      </trkpt>
      <trkpt lat="45.66134" lon="5.91953">
        <ele>251.52</ele>
        <time>2012-04-14T15:56:54Z</time>
      </trkpt>
      <trkpt lat="45.66173" lon="5.91948">
        <ele>252</ele>
        <time>2012-04-14T15:57:05Z</time>
      </trkpt>
      <trkpt lat="45.66204" lon="5.91935">
        <ele>251.52</ele>
        <time>2012-04-14T15:57:14Z</time>
      </trkpt>
      <trkpt lat="45.66226" lon="5.91939">
        <ele>252</ele>
        <time>2012-04-14T15:57:24Z</time>
      </trkpt>
      <trkpt lat="45.6623" lon="5.91941">
        <ele>252</ele>
        <time>2012-04-14T15:57:27Z</time>
      </trkpt>
      <trkpt lat="45.66238" lon="5.91948">
        <ele>252</ele>
        <time>2012-04-14T15:57:34Z</time>
      </trkpt>
    </trkseg>
  </trk>
</gpx>